<?xml version="1.0" encoding="UTF-8" standalone="no" ?>
<gpx xmlns="http://www.topografix.com/GPX/1/1" xmlns:xsi="http://www.w3.org/2001/XMLSchema-instance" xsi:schemaLocation="http://www.topografix.com/GPX/1/1 http://www.topografix.com/GPX/1/1/gpx.xsd" version="1.1" creator="VisuGPX - https://www.visugpx.com">
  <metadata>
    <name>Source du Doubs - Villedieu-les-Mouthe</name>
    <desc><![CDATA[Randonnée pédestre effectuée le 21 mai 2019]]></desc>
  </metadata>
  <trk>
    <name><![CDATA[21 mai 2019 à 09:11:18]]></name>
    <trkseg>
      <trkpt lat="46.70775" lon="6.21002">
        <ele>942</ele>
        <time>2019-05-21T07:11:19Z</time>
      </trkpt>
      <trkpt lat="46.70775" lon="6.21002">
        <ele>942</ele>
        <time>2019-05-21T07:11:20Z</time>
      </trkpt>
      <trkpt lat="46.70765" lon="6.20995">
        <ele>945</ele>
        <time>2019-05-21T07:11:37Z</time>
      </trkpt>
      <trkpt lat="46.7076" lon="6.20989">
        <ele>945</ele>
        <time>2019-05-21T07:11:41Z</time>
      </trkpt>
      <trkpt lat="46.70756" lon="6.20984">
        <ele>946</ele>
        <time>2019-05-21T07:11:45Z</time>
      </trkpt>
      <trkpt lat="46.70752" lon="6.20981">
        <ele>945</ele>
        <time>2019-05-21T07:11:50Z</time>
      </trkpt>
      <trkpt lat="46.70746" lon="6.2098">
        <ele>944</ele>
        <time>2019-05-21T07:11:55Z</time>
      </trkpt>
      <trkpt lat="46.70743" lon="6.20977">
        <ele>944</ele>
        <time>2019-05-21T07:11:59Z</time>
      </trkpt>
      <trkpt lat="46.70739" lon="6.20972">
        <ele>944</ele>
        <time>2019-05-21T07:12:03Z</time>
      </trkpt>
      <trkpt lat="46.70735" lon="6.20968">
        <ele>944</ele>
        <time>2019-05-21T07:12:07Z</time>
      </trkpt>
      <trkpt lat="46.70723" lon="6.20956">
        <ele>944</ele>
        <time>2019-05-21T07:12:20Z</time>
      </trkpt>
      <trkpt lat="46.70719" lon="6.20952">
        <ele>943</ele>
        <time>2019-05-21T07:12:23Z</time>
      </trkpt>
      <trkpt lat="46.70715" lon="6.20946">
        <ele>944</ele>
        <time>2019-05-21T07:12:27Z</time>
      </trkpt>
      <trkpt lat="46.70711" lon="6.20942">
        <ele>944</ele>
        <time>2019-05-21T07:12:30Z</time>
      </trkpt>
      <trkpt lat="46.70708" lon="6.20936">
        <ele>944</ele>
        <time>2019-05-21T07:12:34Z</time>
      </trkpt>
      <trkpt lat="46.70705" lon="6.20931">
        <ele>943</ele>
        <time>2019-05-21T07:12:38Z</time>
      </trkpt>
      <trkpt lat="46.70701" lon="6.20926">
        <ele>943</ele>
        <time>2019-05-21T07:12:43Z</time>
      </trkpt>
      <trkpt lat="46.70692" lon="6.20916">
        <ele>943</ele>
        <time>2019-05-21T07:12:53Z</time>
      </trkpt>
      <trkpt lat="46.70688" lon="6.2091">
        <ele>943</ele>
        <time>2019-05-21T07:12:58Z</time>
      </trkpt>
      <trkpt lat="46.70684" lon="6.20907">
        <ele>943</ele>
        <time>2019-05-21T07:13:02Z</time>
      </trkpt>
      <trkpt lat="46.7068" lon="6.20902">
        <ele>943</ele>
        <time>2019-05-21T07:13:06Z</time>
      </trkpt>
      <trkpt lat="46.70661" lon="6.20877">
        <ele>943</ele>
        <time>2019-05-21T07:13:26Z</time>
      </trkpt>
      <trkpt lat="46.70658" lon="6.20871">
        <ele>942</ele>
        <time>2019-05-21T07:13:31Z</time>
      </trkpt>
      <trkpt lat="46.70652" lon="6.20869">
        <ele>942</ele>
        <time>2019-05-21T07:13:36Z</time>
      </trkpt>
      <trkpt lat="46.70648" lon="6.20866">
        <ele>942</ele>
        <time>2019-05-21T07:13:41Z</time>
      </trkpt>
      <trkpt lat="46.70642" lon="6.20865">
        <ele>940</ele>
        <time>2019-05-21T07:14:55Z</time>
      </trkpt>
      <trkpt lat="46.70638" lon="6.2086">
        <ele>941</ele>
        <time>2019-05-21T07:14:59Z</time>
      </trkpt>
      <trkpt lat="46.7063" lon="6.20852">
        <ele>942</ele>
        <time>2019-05-21T07:15:08Z</time>
      </trkpt>
      <trkpt lat="46.70614" lon="6.20846">
        <ele>942</ele>
        <time>2019-05-21T07:15:23Z</time>
      </trkpt>
      <trkpt lat="46.7061" lon="6.20843">
        <ele>942</ele>
        <time>2019-05-21T07:15:28Z</time>
      </trkpt>
      <trkpt lat="46.70606" lon="6.20839">
        <ele>942</ele>
        <time>2019-05-21T07:15:32Z</time>
      </trkpt>
      <trkpt lat="46.70601" lon="6.20836">
        <ele>942</ele>
        <time>2019-05-21T07:15:37Z</time>
      </trkpt>
      <trkpt lat="46.70595" lon="6.20835">
        <ele>942</ele>
        <time>2019-05-21T07:15:42Z</time>
      </trkpt>
      <trkpt lat="46.70591" lon="6.20837">
        <ele>942</ele>
        <time>2019-05-21T07:15:46Z</time>
      </trkpt>
      <trkpt lat="46.70586" lon="6.2084">
        <ele>941</ele>
        <time>2019-05-21T07:15:50Z</time>
      </trkpt>
      <trkpt lat="46.70582" lon="6.20844">
        <ele>941</ele>
        <time>2019-05-21T07:15:54Z</time>
      </trkpt>
      <trkpt lat="46.70578" lon="6.20849">
        <ele>941</ele>
        <time>2019-05-21T07:15:59Z</time>
      </trkpt>
      <trkpt lat="46.70574" lon="6.20854">
        <ele>941</ele>
        <time>2019-05-21T07:16:04Z</time>
      </trkpt>
      <trkpt lat="46.7057" lon="6.20857">
        <ele>941</ele>
        <time>2019-05-21T07:16:08Z</time>
      </trkpt>
      <trkpt lat="46.70567" lon="6.20863">
        <ele>941</ele>
        <time>2019-05-21T07:16:12Z</time>
      </trkpt>
      <trkpt lat="46.70559" lon="6.20867">
        <ele>940</ele>
        <time>2019-05-21T07:16:23Z</time>
      </trkpt>
      <trkpt lat="46.70554" lon="6.20882">
        <ele>940</ele>
        <time>2019-05-21T07:16:31Z</time>
      </trkpt>
      <trkpt lat="46.70544" lon="6.20892">
        <ele>941</ele>
        <time>2019-05-21T07:16:39Z</time>
      </trkpt>
      <trkpt lat="46.70535" lon="6.20905">
        <ele>941</ele>
        <time>2019-05-21T07:16:55Z</time>
      </trkpt>
      <trkpt lat="46.70521" lon="6.20912">
        <ele>942</ele>
        <time>2019-05-21T07:17:09Z</time>
      </trkpt>
      <trkpt lat="46.70514" lon="6.20918">
        <ele>942</ele>
        <time>2019-05-21T07:17:18Z</time>
      </trkpt>
      <trkpt lat="46.70507" lon="6.20914">
        <ele>946</ele>
        <time>2019-05-21T07:19:36Z</time>
      </trkpt>
      <trkpt lat="46.7051" lon="6.20897">
        <ele>947</ele>
        <time>2019-05-21T07:20:43Z</time>
      </trkpt>
      <trkpt lat="46.70519" lon="6.20879">
        <ele>946</ele>
        <time>2019-05-21T07:21:13Z</time>
      </trkpt>
      <trkpt lat="46.7052" lon="6.2088">
        <ele>946</ele>
        <time>2019-05-21T07:22:06Z</time>
      </trkpt>
      <trkpt lat="46.70518" lon="6.20895">
        <ele>948</ele>
        <time>2019-05-21T07:22:17Z</time>
      </trkpt>
      <trkpt lat="46.70522" lon="6.20899">
        <ele>951</ele>
        <time>2019-05-21T07:23:00Z</time>
      </trkpt>
      <trkpt lat="46.70532" lon="6.20906">
        <ele>954</ele>
        <time>2019-05-21T07:23:18Z</time>
      </trkpt>
      <trkpt lat="46.70542" lon="6.209">
        <ele>958</ele>
        <time>2019-05-21T07:23:54Z</time>
      </trkpt>
      <trkpt lat="46.70546" lon="6.20918">
        <ele>959</ele>
        <time>2019-05-21T07:24:19Z</time>
      </trkpt>
      <trkpt lat="46.70557" lon="6.20927">
        <ele>959</ele>
        <time>2019-05-21T07:24:45Z</time>
      </trkpt>
      <trkpt lat="46.70558" lon="6.20944">
        <ele>961</ele>
        <time>2019-05-21T07:25:09Z</time>
      </trkpt>
      <trkpt lat="46.70559" lon="6.20959">
        <ele>961</ele>
        <time>2019-05-21T07:25:19Z</time>
      </trkpt>
      <trkpt lat="46.7056" lon="6.20972">
        <ele>962</ele>
        <time>2019-05-21T07:25:30Z</time>
      </trkpt>
      <trkpt lat="46.70542" lon="6.20991">
        <ele>966</ele>
        <time>2019-05-21T07:26:12Z</time>
      </trkpt>
      <trkpt lat="46.70532" lon="6.20995">
        <ele>968</ele>
        <time>2019-05-21T07:26:36Z</time>
      </trkpt>
      <trkpt lat="46.70525" lon="6.21004">
        <ele>971</ele>
        <time>2019-05-21T07:26:54Z</time>
      </trkpt>
      <trkpt lat="46.70517" lon="6.21013">
        <ele>973</ele>
        <time>2019-05-21T07:27:05Z</time>
      </trkpt>
      <trkpt lat="46.70506" lon="6.21017">
        <ele>974</ele>
        <time>2019-05-21T07:27:19Z</time>
      </trkpt>
      <trkpt lat="46.70493" lon="6.21004">
        <ele>978</ele>
        <time>2019-05-21T07:27:58Z</time>
      </trkpt>
      <trkpt lat="46.70487" lon="6.20992">
        <ele>980</ele>
        <time>2019-05-21T07:28:10Z</time>
      </trkpt>
      <trkpt lat="46.70475" lon="6.2099">
        <ele>981</ele>
        <time>2019-05-21T07:28:28Z</time>
      </trkpt>
      <trkpt lat="46.70478" lon="6.20997">
        <ele>997</ele>
        <time>2019-05-21T07:32:28Z</time>
      </trkpt>
      <trkpt lat="46.70482" lon="6.2101">
        <ele>998</ele>
        <time>2019-05-21T07:32:40Z</time>
      </trkpt>
      <trkpt lat="46.70487" lon="6.21022">
        <ele>998</ele>
        <time>2019-05-21T07:32:52Z</time>
      </trkpt>
      <trkpt lat="46.70496" lon="6.21037">
        <ele>996</ele>
        <time>2019-05-21T07:33:07Z</time>
      </trkpt>
      <trkpt lat="46.705" lon="6.21052">
        <ele>995</ele>
        <time>2019-05-21T07:33:21Z</time>
      </trkpt>
      <trkpt lat="46.70509" lon="6.21057">
        <ele>993</ele>
        <time>2019-05-21T07:33:31Z</time>
      </trkpt>
      <trkpt lat="46.70518" lon="6.21063">
        <ele>993</ele>
        <time>2019-05-21T07:33:40Z</time>
      </trkpt>
      <trkpt lat="46.70529" lon="6.21067">
        <ele>992</ele>
        <time>2019-05-21T07:33:54Z</time>
      </trkpt>
      <trkpt lat="46.70539" lon="6.21061">
        <ele>991</ele>
        <time>2019-05-21T07:34:02Z</time>
      </trkpt>
      <trkpt lat="46.70549" lon="6.21062">
        <ele>990</ele>
        <time>2019-05-21T07:34:15Z</time>
      </trkpt>
      <trkpt lat="46.70561" lon="6.21071">
        <ele>989</ele>
        <time>2019-05-21T07:34:29Z</time>
      </trkpt>
      <trkpt lat="46.70572" lon="6.21067">
        <ele>986</ele>
        <time>2019-05-21T07:34:38Z</time>
      </trkpt>
      <trkpt lat="46.70575" lon="6.21073">
        <ele>985</ele>
        <time>2019-05-21T07:34:47Z</time>
      </trkpt>
      <trkpt lat="46.70578" lon="6.21092">
        <ele>984</ele>
        <time>2019-05-21T07:35:04Z</time>
      </trkpt>
      <trkpt lat="46.70597" lon="6.21112">
        <ele>983</ele>
        <time>2019-05-21T07:35:25Z</time>
      </trkpt>
      <trkpt lat="46.70603" lon="6.21124">
        <ele>982</ele>
        <time>2019-05-21T07:35:35Z</time>
      </trkpt>
      <trkpt lat="46.70607" lon="6.21138">
        <ele>981</ele>
        <time>2019-05-21T07:35:49Z</time>
      </trkpt>
      <trkpt lat="46.70625" lon="6.21159">
        <ele>979</ele>
        <time>2019-05-21T07:36:19Z</time>
      </trkpt>
      <trkpt lat="46.70645" lon="6.21147">
        <ele>974</ele>
        <time>2019-05-21T07:36:39Z</time>
      </trkpt>
      <trkpt lat="46.70653" lon="6.21142">
        <ele>974</ele>
        <time>2019-05-21T07:36:46Z</time>
      </trkpt>
      <trkpt lat="46.70664" lon="6.21138">
        <ele>971</ele>
        <time>2019-05-21T07:37:01Z</time>
      </trkpt>
      <trkpt lat="46.70669" lon="6.21137">
        <ele>962</ele>
        <time>2019-05-21T07:38:18Z</time>
      </trkpt>
      <trkpt lat="46.70679" lon="6.21143">
        <ele>960</ele>
        <time>2019-05-21T07:38:27Z</time>
      </trkpt>
      <trkpt lat="46.70685" lon="6.21147">
        <ele>961</ele>
        <time>2019-05-21T07:38:33Z</time>
      </trkpt>
      <trkpt lat="46.7069" lon="6.21148">
        <ele>961</ele>
        <time>2019-05-21T07:38:36Z</time>
      </trkpt>
      <trkpt lat="46.70695" lon="6.21152">
        <ele>961</ele>
        <time>2019-05-21T07:38:40Z</time>
      </trkpt>
      <trkpt lat="46.70698" lon="6.21157">
        <ele>960</ele>
        <time>2019-05-21T07:38:44Z</time>
      </trkpt>
      <trkpt lat="46.707" lon="6.21163">
        <ele>960</ele>
        <time>2019-05-21T07:38:48Z</time>
      </trkpt>
      <trkpt lat="46.70706" lon="6.21185">
        <ele>959</ele>
        <time>2019-05-21T07:39:00Z</time>
      </trkpt>
      <trkpt lat="46.70706" lon="6.21193">
        <ele>959</ele>
        <time>2019-05-21T07:39:04Z</time>
      </trkpt>
      <trkpt lat="46.7071" lon="6.21207">
        <ele>959</ele>
        <time>2019-05-21T07:39:12Z</time>
      </trkpt>
      <trkpt lat="46.70714" lon="6.21219">
        <ele>959</ele>
        <time>2019-05-21T07:39:20Z</time>
      </trkpt>
      <trkpt lat="46.70718" lon="6.21246">
        <ele>959</ele>
        <time>2019-05-21T07:39:36Z</time>
      </trkpt>
      <trkpt lat="46.70719" lon="6.21261">
        <ele>959</ele>
        <time>2019-05-21T07:39:44Z</time>
      </trkpt>
      <trkpt lat="46.70722" lon="6.21274">
        <ele>960</ele>
        <time>2019-05-21T07:39:53Z</time>
      </trkpt>
      <trkpt lat="46.70724" lon="6.21287">
        <ele>960</ele>
        <time>2019-05-21T07:40:01Z</time>
      </trkpt>
      <trkpt lat="46.70728" lon="6.21314">
        <ele>961</ele>
        <time>2019-05-21T07:40:16Z</time>
      </trkpt>
      <trkpt lat="46.70731" lon="6.21326">
        <ele>960</ele>
        <time>2019-05-21T07:40:25Z</time>
      </trkpt>
      <trkpt lat="46.70737" lon="6.21338">
        <ele>961</ele>
        <time>2019-05-21T07:40:32Z</time>
      </trkpt>
      <trkpt lat="46.70741" lon="6.21357">
        <ele>961</ele>
        <time>2019-05-21T07:40:49Z</time>
      </trkpt>
      <trkpt lat="46.70743" lon="6.21369">
        <ele>961</ele>
        <time>2019-05-21T07:40:56Z</time>
      </trkpt>
      <trkpt lat="46.70742" lon="6.21412">
        <ele>961</ele>
        <time>2019-05-21T07:41:18Z</time>
      </trkpt>
      <trkpt lat="46.70747" lon="6.21424">
        <ele>961</ele>
        <time>2019-05-21T07:41:27Z</time>
      </trkpt>
      <trkpt lat="46.70755" lon="6.21431">
        <ele>961</ele>
        <time>2019-05-21T07:41:32Z</time>
      </trkpt>
      <trkpt lat="46.70752" lon="6.21451">
        <ele>960</ele>
        <time>2019-05-21T07:41:49Z</time>
      </trkpt>
      <trkpt lat="46.70756" lon="6.21466">
        <ele>961</ele>
        <time>2019-05-21T07:41:58Z</time>
      </trkpt>
      <trkpt lat="46.70757" lon="6.21481">
        <ele>959</ele>
        <time>2019-05-21T07:42:12Z</time>
      </trkpt>
      <trkpt lat="46.70759" lon="6.21502">
        <ele>960</ele>
        <time>2019-05-21T07:42:26Z</time>
      </trkpt>
      <trkpt lat="46.70758" lon="6.21515">
        <ele>960</ele>
        <time>2019-05-21T07:42:35Z</time>
      </trkpt>
      <trkpt lat="46.70761" lon="6.21543">
        <ele>963</ele>
        <time>2019-05-21T07:42:54Z</time>
      </trkpt>
      <trkpt lat="46.70763" lon="6.21571">
        <ele>963</ele>
        <time>2019-05-21T07:43:12Z</time>
      </trkpt>
      <trkpt lat="46.70764" lon="6.21585">
        <ele>965</ele>
        <time>2019-05-21T07:43:21Z</time>
      </trkpt>
      <trkpt lat="46.70764" lon="6.21598">
        <ele>965</ele>
        <time>2019-05-21T07:43:29Z</time>
      </trkpt>
      <trkpt lat="46.70768" lon="6.21611">
        <ele>966</ele>
        <time>2019-05-21T07:43:38Z</time>
      </trkpt>
      <trkpt lat="46.70773" lon="6.21637">
        <ele>966</ele>
        <time>2019-05-21T07:43:54Z</time>
      </trkpt>
      <trkpt lat="46.70777" lon="6.21678">
        <ele>970</ele>
        <time>2019-05-21T07:44:20Z</time>
      </trkpt>
      <trkpt lat="46.70781" lon="6.21708">
        <ele>972</ele>
        <time>2019-05-21T07:44:44Z</time>
      </trkpt>
      <trkpt lat="46.70785" lon="6.21721">
        <ele>972</ele>
        <time>2019-05-21T07:44:52Z</time>
      </trkpt>
      <trkpt lat="46.70796" lon="6.21744">
        <ele>974</ele>
        <time>2019-05-21T07:45:09Z</time>
      </trkpt>
      <trkpt lat="46.70798" lon="6.21757">
        <ele>975</ele>
        <time>2019-05-21T07:45:20Z</time>
      </trkpt>
      <trkpt lat="46.70799" lon="6.2177">
        <ele>976</ele>
        <time>2019-05-21T07:45:38Z</time>
      </trkpt>
      <trkpt lat="46.70793" lon="6.2178">
        <ele>978</ele>
        <time>2019-05-21T07:45:50Z</time>
      </trkpt>
      <trkpt lat="46.7079" lon="6.21793">
        <ele>978</ele>
        <time>2019-05-21T07:46:00Z</time>
      </trkpt>
      <trkpt lat="46.70794" lon="6.21807">
        <ele>979</ele>
        <time>2019-05-21T07:46:12Z</time>
      </trkpt>
      <trkpt lat="46.70799" lon="6.21822">
        <ele>980</ele>
        <time>2019-05-21T07:46:22Z</time>
      </trkpt>
      <trkpt lat="46.70804" lon="6.21835">
        <ele>981</ele>
        <time>2019-05-21T07:46:32Z</time>
      </trkpt>
      <trkpt lat="46.70812" lon="6.2186">
        <ele>982</ele>
        <time>2019-05-21T07:46:51Z</time>
      </trkpt>
      <trkpt lat="46.70813" lon="6.21874">
        <ele>983</ele>
        <time>2019-05-21T07:46:59Z</time>
      </trkpt>
      <trkpt lat="46.70817" lon="6.21886">
        <ele>984</ele>
        <time>2019-05-21T07:47:07Z</time>
      </trkpt>
      <trkpt lat="46.70821" lon="6.21898">
        <ele>985</ele>
        <time>2019-05-21T07:47:15Z</time>
      </trkpt>
      <trkpt lat="46.70825" lon="6.2191">
        <ele>984</ele>
        <time>2019-05-21T07:47:25Z</time>
      </trkpt>
      <trkpt lat="46.7083" lon="6.21922">
        <ele>985</ele>
        <time>2019-05-21T07:47:32Z</time>
      </trkpt>
      <trkpt lat="46.70833" lon="6.21936">
        <ele>985</ele>
        <time>2019-05-21T07:47:40Z</time>
      </trkpt>
      <trkpt lat="46.70841" lon="6.21961">
        <ele>988</ele>
        <time>2019-05-21T07:47:55Z</time>
      </trkpt>
      <trkpt lat="46.70843" lon="6.21974">
        <ele>989</ele>
        <time>2019-05-21T07:48:03Z</time>
      </trkpt>
      <trkpt lat="46.70848" lon="6.21987">
        <ele>989</ele>
        <time>2019-05-21T07:48:11Z</time>
      </trkpt>
      <trkpt lat="46.70867" lon="6.22034">
        <ele>990</ele>
        <time>2019-05-21T07:48:43Z</time>
      </trkpt>
      <trkpt lat="46.70872" lon="6.22046">
        <ele>990</ele>
        <time>2019-05-21T07:48:49Z</time>
      </trkpt>
      <trkpt lat="46.70871" lon="6.22061">
        <ele>991</ele>
        <time>2019-05-21T07:48:57Z</time>
      </trkpt>
      <trkpt lat="46.70875" lon="6.22072">
        <ele>992</ele>
        <time>2019-05-21T07:49:06Z</time>
      </trkpt>
      <trkpt lat="46.70889" lon="6.22094">
        <ele>993</ele>
        <time>2019-05-21T07:49:21Z</time>
      </trkpt>
      <trkpt lat="46.70897" lon="6.22124">
        <ele>991</ele>
        <time>2019-05-21T07:49:47Z</time>
      </trkpt>
      <trkpt lat="46.70905" lon="6.22137">
        <ele>992</ele>
        <time>2019-05-21T07:50:01Z</time>
      </trkpt>
      <trkpt lat="46.70914" lon="6.2219">
        <ele>995</ele>
        <time>2019-05-21T07:50:41Z</time>
      </trkpt>
      <trkpt lat="46.70916" lon="6.22206">
        <ele>994</ele>
        <time>2019-05-21T07:50:53Z</time>
      </trkpt>
      <trkpt lat="46.70921" lon="6.22216">
        <ele>995</ele>
        <time>2019-05-21T07:51:02Z</time>
      </trkpt>
      <trkpt lat="46.70922" lon="6.22234">
        <ele>997</ele>
        <time>2019-05-21T07:51:18Z</time>
      </trkpt>
      <trkpt lat="46.70924" lon="6.22247">
        <ele>996</ele>
        <time>2019-05-21T07:51:26Z</time>
      </trkpt>
      <trkpt lat="46.70925" lon="6.22272">
        <ele>998</ele>
        <time>2019-05-21T07:51:43Z</time>
      </trkpt>
      <trkpt lat="46.7092" lon="6.22284">
        <ele>998</ele>
        <time>2019-05-21T07:51:50Z</time>
      </trkpt>
      <trkpt lat="46.7093" lon="6.22322">
        <ele>998</ele>
        <time>2019-05-21T07:52:22Z</time>
      </trkpt>
      <trkpt lat="46.70928" lon="6.22337">
        <ele>998</ele>
        <time>2019-05-21T07:52:31Z</time>
      </trkpt>
      <trkpt lat="46.70929" lon="6.2235">
        <ele>999</ele>
        <time>2019-05-21T07:52:41Z</time>
      </trkpt>
      <trkpt lat="46.70927" lon="6.22364">
        <ele>1000</ele>
        <time>2019-05-21T07:52:52Z</time>
      </trkpt>
      <trkpt lat="46.70935" lon="6.22373">
        <ele>1001</ele>
        <time>2019-05-21T07:53:10Z</time>
      </trkpt>
      <trkpt lat="46.70928" lon="6.22387">
        <ele>1003</ele>
        <time>2019-05-21T07:53:34Z</time>
      </trkpt>
      <trkpt lat="46.70926" lon="6.224">
        <ele>1004</ele>
        <time>2019-05-21T07:55:04Z</time>
      </trkpt>
      <trkpt lat="46.70926" lon="6.22409">
        <ele>1008</ele>
        <time>2019-05-21T07:56:14Z</time>
      </trkpt>
      <trkpt lat="46.70928" lon="6.22414">
        <ele>1007</ele>
        <time>2019-05-21T07:56:18Z</time>
      </trkpt>
      <trkpt lat="46.70934" lon="6.22429">
        <ele>1009</ele>
        <time>2019-05-21T07:56:31Z</time>
      </trkpt>
      <trkpt lat="46.70938" lon="6.22449">
        <ele>1008</ele>
        <time>2019-05-21T07:56:45Z</time>
      </trkpt>
      <trkpt lat="46.70948" lon="6.22478">
        <ele>1004</ele>
        <time>2019-05-21T07:57:08Z</time>
      </trkpt>
      <trkpt lat="46.70951" lon="6.22502">
        <ele>1005</ele>
        <time>2019-05-21T07:57:25Z</time>
      </trkpt>
      <trkpt lat="46.70954" lon="6.2253">
        <ele>1004</ele>
        <time>2019-05-21T07:57:43Z</time>
      </trkpt>
      <trkpt lat="46.70958" lon="6.22571">
        <ele>1005</ele>
        <time>2019-05-21T07:58:09Z</time>
      </trkpt>
      <trkpt lat="46.70961" lon="6.22583">
        <ele>1006</ele>
        <time>2019-05-21T07:58:16Z</time>
      </trkpt>
      <trkpt lat="46.70966" lon="6.22595">
        <ele>1007</ele>
        <time>2019-05-21T07:58:25Z</time>
      </trkpt>
      <trkpt lat="46.70985" lon="6.22606">
        <ele>1007</ele>
        <time>2019-05-21T07:58:39Z</time>
      </trkpt>
      <trkpt lat="46.70991" lon="6.22618">
        <ele>1007</ele>
        <time>2019-05-21T07:58:47Z</time>
      </trkpt>
      <trkpt lat="46.70998" lon="6.22629">
        <ele>1007</ele>
        <time>2019-05-21T07:58:55Z</time>
      </trkpt>
      <trkpt lat="46.71" lon="6.22642">
        <ele>1006</ele>
        <time>2019-05-21T07:59:02Z</time>
      </trkpt>
      <trkpt lat="46.71018" lon="6.22675">
        <ele>1009</ele>
        <time>2019-05-21T07:59:29Z</time>
      </trkpt>
      <trkpt lat="46.71022" lon="6.22688">
        <ele>1009</ele>
        <time>2019-05-21T07:59:37Z</time>
      </trkpt>
      <trkpt lat="46.71025" lon="6.22701">
        <ele>1008</ele>
        <time>2019-05-21T07:59:46Z</time>
      </trkpt>
      <trkpt lat="46.71031" lon="6.22712">
        <ele>1008</ele>
        <time>2019-05-21T07:59:55Z</time>
      </trkpt>
      <trkpt lat="46.71034" lon="6.22726">
        <ele>1007</ele>
        <time>2019-05-21T08:00:05Z</time>
      </trkpt>
      <trkpt lat="46.71037" lon="6.22738">
        <ele>1008</ele>
        <time>2019-05-21T08:00:13Z</time>
      </trkpt>
      <trkpt lat="46.71041" lon="6.22752">
        <ele>1007</ele>
        <time>2019-05-21T08:00:22Z</time>
      </trkpt>
      <trkpt lat="46.71044" lon="6.22764">
        <ele>1008</ele>
        <time>2019-05-21T08:00:29Z</time>
      </trkpt>
      <trkpt lat="46.71047" lon="6.22778">
        <ele>1008</ele>
        <time>2019-05-21T08:00:37Z</time>
      </trkpt>
      <trkpt lat="46.71051" lon="6.22791">
        <ele>1008</ele>
        <time>2019-05-21T08:00:46Z</time>
      </trkpt>
      <trkpt lat="46.71054" lon="6.22804">
        <ele>1008</ele>
        <time>2019-05-21T08:00:54Z</time>
      </trkpt>
      <trkpt lat="46.71061" lon="6.22831">
        <ele>1008</ele>
        <time>2019-05-21T08:01:13Z</time>
      </trkpt>
      <trkpt lat="46.71064" lon="6.22858">
        <ele>1011</ele>
        <time>2019-05-21T08:01:32Z</time>
      </trkpt>
      <trkpt lat="46.71062" lon="6.22871">
        <ele>1012</ele>
        <time>2019-05-21T08:01:41Z</time>
      </trkpt>
      <trkpt lat="46.71058" lon="6.22888">
        <ele>1013</ele>
        <time>2019-05-21T08:01:54Z</time>
      </trkpt>
      <trkpt lat="46.71059" lon="6.22902">
        <ele>1013</ele>
        <time>2019-05-21T08:02:03Z</time>
      </trkpt>
      <trkpt lat="46.71062" lon="6.22914">
        <ele>1013</ele>
        <time>2019-05-21T08:02:12Z</time>
      </trkpt>
      <trkpt lat="46.71068" lon="6.22928">
        <ele>1014</ele>
        <time>2019-05-21T08:02:24Z</time>
      </trkpt>
      <trkpt lat="46.71075" lon="6.22937">
        <ele>1014</ele>
        <time>2019-05-21T08:02:34Z</time>
      </trkpt>
      <trkpt lat="46.71081" lon="6.22959">
        <ele>1017</ele>
        <time>2019-05-21T08:02:51Z</time>
      </trkpt>
      <trkpt lat="46.71085" lon="6.22999">
        <ele>1019</ele>
        <time>2019-05-21T08:03:20Z</time>
      </trkpt>
      <trkpt lat="46.71094" lon="6.2301">
        <ele>1020</ele>
        <time>2019-05-21T08:03:28Z</time>
      </trkpt>
      <trkpt lat="46.71096" lon="6.23023">
        <ele>1021</ele>
        <time>2019-05-21T08:03:40Z</time>
      </trkpt>
      <trkpt lat="46.71101" lon="6.23041">
        <ele>1022</ele>
        <time>2019-05-21T08:04:03Z</time>
      </trkpt>
      <trkpt lat="46.71095" lon="6.2305">
        <ele>1022</ele>
        <time>2019-05-21T08:04:08Z</time>
      </trkpt>
      <trkpt lat="46.71084" lon="6.2309">
        <ele>1023</ele>
        <time>2019-05-21T08:04:27Z</time>
      </trkpt>
      <trkpt lat="46.71095" lon="6.23089">
        <ele>1023</ele>
        <time>2019-05-21T08:04:34Z</time>
      </trkpt>
      <trkpt lat="46.71098" lon="6.23114">
        <ele>1023</ele>
        <time>2019-05-21T08:04:52Z</time>
      </trkpt>
      <trkpt lat="46.711" lon="6.23127">
        <ele>1025</ele>
        <time>2019-05-21T08:04:59Z</time>
      </trkpt>
      <trkpt lat="46.71098" lon="6.23143">
        <ele>1025</ele>
        <time>2019-05-21T08:05:07Z</time>
      </trkpt>
      <trkpt lat="46.71092" lon="6.23175">
        <ele>1025</ele>
        <time>2019-05-21T08:05:30Z</time>
      </trkpt>
      <trkpt lat="46.71094" lon="6.23189">
        <ele>1027</ele>
        <time>2019-05-21T08:05:39Z</time>
      </trkpt>
      <trkpt lat="46.71102" lon="6.23194">
        <ele>1028</ele>
        <time>2019-05-21T08:05:47Z</time>
      </trkpt>
      <trkpt lat="46.711" lon="6.23227">
        <ele>1027</ele>
        <time>2019-05-21T08:06:14Z</time>
      </trkpt>
      <trkpt lat="46.71099" lon="6.23241">
        <ele>1029</ele>
        <time>2019-05-21T08:06:22Z</time>
      </trkpt>
      <trkpt lat="46.71091" lon="6.23262">
        <ele>1029</ele>
        <time>2019-05-21T08:06:35Z</time>
      </trkpt>
      <trkpt lat="46.71088" lon="6.23279">
        <ele>1030</ele>
        <time>2019-05-21T08:06:45Z</time>
      </trkpt>
      <trkpt lat="46.71088" lon="6.233">
        <ele>1033</ele>
        <time>2019-05-21T08:07:01Z</time>
      </trkpt>
      <trkpt lat="46.71082" lon="6.23312">
        <ele>1034</ele>
        <time>2019-05-21T08:07:09Z</time>
      </trkpt>
      <trkpt lat="46.71084" lon="6.23327">
        <ele>1035</ele>
        <time>2019-05-21T08:07:23Z</time>
      </trkpt>
      <trkpt lat="46.71081" lon="6.2334">
        <ele>1036</ele>
        <time>2019-05-21T08:07:32Z</time>
      </trkpt>
      <trkpt lat="46.71087" lon="6.2337">
        <ele>1037</ele>
        <time>2019-05-21T08:07:54Z</time>
      </trkpt>
      <trkpt lat="46.71089" lon="6.23385">
        <ele>1040</ele>
        <time>2019-05-21T08:08:03Z</time>
      </trkpt>
      <trkpt lat="46.71098" lon="6.23391">
        <ele>1041</ele>
        <time>2019-05-21T08:08:14Z</time>
      </trkpt>
      <trkpt lat="46.71101" lon="6.23405">
        <ele>1042</ele>
        <time>2019-05-21T08:08:24Z</time>
      </trkpt>
      <trkpt lat="46.71104" lon="6.23418">
        <ele>1043</ele>
        <time>2019-05-21T08:08:31Z</time>
      </trkpt>
      <trkpt lat="46.71112" lon="6.23434">
        <ele>1044</ele>
        <time>2019-05-21T08:08:47Z</time>
      </trkpt>
      <trkpt lat="46.71114" lon="6.23448">
        <ele>1045</ele>
        <time>2019-05-21T08:08:55Z</time>
      </trkpt>
      <trkpt lat="46.71124" lon="6.23455">
        <ele>1046</ele>
        <time>2019-05-21T08:09:06Z</time>
      </trkpt>
      <trkpt lat="46.71122" lon="6.23471">
        <ele>1048</ele>
        <time>2019-05-21T08:09:16Z</time>
      </trkpt>
      <trkpt lat="46.71128" lon="6.23492">
        <ele>1050</ele>
        <time>2019-05-21T08:09:44Z</time>
      </trkpt>
      <trkpt lat="46.71138" lon="6.23515">
        <ele>1053</ele>
        <time>2019-05-21T08:10:02Z</time>
      </trkpt>
      <trkpt lat="46.71136" lon="6.23531">
        <ele>1054</ele>
        <time>2019-05-21T08:10:11Z</time>
      </trkpt>
      <trkpt lat="46.71144" lon="6.23543">
        <ele>1054</ele>
        <time>2019-05-21T08:10:22Z</time>
      </trkpt>
      <trkpt lat="46.71153" lon="6.23555">
        <ele>1055</ele>
        <time>2019-05-21T08:10:33Z</time>
      </trkpt>
      <trkpt lat="46.71155" lon="6.23569">
        <ele>1057</ele>
        <time>2019-05-21T08:10:49Z</time>
      </trkpt>
      <trkpt lat="46.7116" lon="6.23605">
        <ele>1059</ele>
        <time>2019-05-21T08:11:14Z</time>
      </trkpt>
      <trkpt lat="46.71157" lon="6.2362">
        <ele>1059</ele>
        <time>2019-05-21T08:11:22Z</time>
      </trkpt>
      <trkpt lat="46.71165" lon="6.23638">
        <ele>1062</ele>
        <time>2019-05-21T08:11:40Z</time>
      </trkpt>
      <trkpt lat="46.71171" lon="6.23664">
        <ele>1065</ele>
        <time>2019-05-21T08:11:58Z</time>
      </trkpt>
      <trkpt lat="46.71163" lon="6.23702">
        <ele>1068</ele>
        <time>2019-05-21T08:12:25Z</time>
      </trkpt>
      <trkpt lat="46.71154" lon="6.23726">
        <ele>1069</ele>
        <time>2019-05-21T08:12:45Z</time>
      </trkpt>
      <trkpt lat="46.7115" lon="6.2374">
        <ele>1070</ele>
        <time>2019-05-21T08:12:59Z</time>
      </trkpt>
      <trkpt lat="46.71143" lon="6.23758">
        <ele>1070</ele>
        <time>2019-05-21T08:13:15Z</time>
      </trkpt>
      <trkpt lat="46.71144" lon="6.2378">
        <ele>1071</ele>
        <time>2019-05-21T08:13:31Z</time>
      </trkpt>
      <trkpt lat="46.71134" lon="6.23803">
        <ele>1073</ele>
        <time>2019-05-21T08:13:45Z</time>
      </trkpt>
      <trkpt lat="46.71136" lon="6.23816">
        <ele>1074</ele>
        <time>2019-05-21T08:13:53Z</time>
      </trkpt>
      <trkpt lat="46.71135" lon="6.23837">
        <ele>1076</ele>
        <time>2019-05-21T08:14:11Z</time>
      </trkpt>
      <trkpt lat="46.71138" lon="6.2385">
        <ele>1078</ele>
        <time>2019-05-21T08:14:21Z</time>
      </trkpt>
      <trkpt lat="46.71138" lon="6.23865">
        <ele>1078</ele>
        <time>2019-05-21T08:14:41Z</time>
      </trkpt>
      <trkpt lat="46.71148" lon="6.23863">
        <ele>1083</ele>
        <time>2019-05-21T08:18:01Z</time>
      </trkpt>
      <trkpt lat="46.7114" lon="6.23885">
        <ele>1081</ele>
        <time>2019-05-21T08:18:34Z</time>
      </trkpt>
      <trkpt lat="46.71139" lon="6.239">
        <ele>1082</ele>
        <time>2019-05-21T08:18:54Z</time>
      </trkpt>
      <trkpt lat="46.71136" lon="6.23913">
        <ele>1083</ele>
        <time>2019-05-21T08:19:02Z</time>
      </trkpt>
      <trkpt lat="46.71127" lon="6.23938">
        <ele>1083</ele>
        <time>2019-05-21T08:19:18Z</time>
      </trkpt>
      <trkpt lat="46.7112" lon="6.23946">
        <ele>1083</ele>
        <time>2019-05-21T08:19:25Z</time>
      </trkpt>
      <trkpt lat="46.71115" lon="6.23957">
        <ele>1084</ele>
        <time>2019-05-21T08:19:35Z</time>
      </trkpt>
      <trkpt lat="46.71125" lon="6.23973">
        <ele>1086</ele>
        <time>2019-05-21T08:19:52Z</time>
      </trkpt>
      <trkpt lat="46.71134" lon="6.23971">
        <ele>1088</ele>
        <time>2019-05-21T08:20:00Z</time>
      </trkpt>
      <trkpt lat="46.71143" lon="6.23987">
        <ele>1090</ele>
        <time>2019-05-21T08:20:14Z</time>
      </trkpt>
      <trkpt lat="46.71158" lon="6.24028">
        <ele>1094</ele>
        <time>2019-05-21T08:20:46Z</time>
      </trkpt>
      <trkpt lat="46.71162" lon="6.24041">
        <ele>1094</ele>
        <time>2019-05-21T08:20:55Z</time>
      </trkpt>
      <trkpt lat="46.71165" lon="6.24054">
        <ele>1095</ele>
        <time>2019-05-21T08:21:03Z</time>
      </trkpt>
      <trkpt lat="46.71169" lon="6.24068">
        <ele>1094</ele>
        <time>2019-05-21T08:21:12Z</time>
      </trkpt>
      <trkpt lat="46.71174" lon="6.2408">
        <ele>1094</ele>
        <time>2019-05-21T08:21:21Z</time>
      </trkpt>
      <trkpt lat="46.71182" lon="6.24087">
        <ele>1096</ele>
        <time>2019-05-21T08:21:29Z</time>
      </trkpt>
      <trkpt lat="46.71186" lon="6.24102">
        <ele>1096</ele>
        <time>2019-05-21T08:21:40Z</time>
      </trkpt>
      <trkpt lat="46.71193" lon="6.24111">
        <ele>1095</ele>
        <time>2019-05-21T08:21:48Z</time>
      </trkpt>
      <trkpt lat="46.71201" lon="6.24126">
        <ele>1096</ele>
        <time>2019-05-21T08:21:59Z</time>
      </trkpt>
      <trkpt lat="46.712" lon="6.2414">
        <ele>1097</ele>
        <time>2019-05-21T08:22:06Z</time>
      </trkpt>
      <trkpt lat="46.71205" lon="6.24153">
        <ele>1097</ele>
        <time>2019-05-21T08:22:13Z</time>
      </trkpt>
      <trkpt lat="46.71218" lon="6.24174">
        <ele>1099</ele>
        <time>2019-05-21T08:22:30Z</time>
      </trkpt>
      <trkpt lat="46.71222" lon="6.24187">
        <ele>1099</ele>
        <time>2019-05-21T08:22:40Z</time>
      </trkpt>
      <trkpt lat="46.71223" lon="6.242">
        <ele>1099</ele>
        <time>2019-05-21T08:22:47Z</time>
      </trkpt>
      <trkpt lat="46.7123" lon="6.24226">
        <ele>1099</ele>
        <time>2019-05-21T08:23:04Z</time>
      </trkpt>
      <trkpt lat="46.71233" lon="6.24238">
        <ele>1099</ele>
        <time>2019-05-21T08:23:11Z</time>
      </trkpt>
      <trkpt lat="46.71237" lon="6.24278">
        <ele>1096</ele>
        <time>2019-05-21T08:23:39Z</time>
      </trkpt>
      <trkpt lat="46.71241" lon="6.24291">
        <ele>1096</ele>
        <time>2019-05-21T08:23:54Z</time>
      </trkpt>
      <trkpt lat="46.71249" lon="6.24302">
        <ele>1097</ele>
        <time>2019-05-21T08:24:07Z</time>
      </trkpt>
      <trkpt lat="46.71241" lon="6.24333">
        <ele>1097</ele>
        <time>2019-05-21T08:24:28Z</time>
      </trkpt>
      <trkpt lat="46.71246" lon="6.24345">
        <ele>1097</ele>
        <time>2019-05-21T08:24:34Z</time>
      </trkpt>
      <trkpt lat="46.71248" lon="6.2436">
        <ele>1096</ele>
        <time>2019-05-21T08:24:40Z</time>
      </trkpt>
      <trkpt lat="46.71256" lon="6.2437">
        <ele>1096</ele>
        <time>2019-05-21T08:24:47Z</time>
      </trkpt>
      <trkpt lat="46.71268" lon="6.24367">
        <ele>1095</ele>
        <time>2019-05-21T08:25:01Z</time>
      </trkpt>
      <trkpt lat="46.71275" lon="6.24378">
        <ele>1095</ele>
        <time>2019-05-21T08:25:09Z</time>
      </trkpt>
      <trkpt lat="46.71277" lon="6.24393">
        <ele>1095</ele>
        <time>2019-05-21T08:25:15Z</time>
      </trkpt>
      <trkpt lat="46.71274" lon="6.24407">
        <ele>1094</ele>
        <time>2019-05-21T08:25:24Z</time>
      </trkpt>
      <trkpt lat="46.71265" lon="6.24411">
        <ele>1094</ele>
        <time>2019-05-21T08:25:32Z</time>
      </trkpt>
      <trkpt lat="46.71257" lon="6.24421">
        <ele>1094</ele>
        <time>2019-05-21T08:25:38Z</time>
      </trkpt>
      <trkpt lat="46.71258" lon="6.24434">
        <ele>1092</ele>
        <time>2019-05-21T08:25:46Z</time>
      </trkpt>
      <trkpt lat="46.71264" lon="6.24445">
        <ele>1090</ele>
        <time>2019-05-21T08:25:54Z</time>
      </trkpt>
      <trkpt lat="46.71271" lon="6.24454">
        <ele>1090</ele>
        <time>2019-05-21T08:26:01Z</time>
      </trkpt>
      <trkpt lat="46.71299" lon="6.24467">
        <ele>1089</ele>
        <time>2019-05-21T08:26:26Z</time>
      </trkpt>
      <trkpt lat="46.71311" lon="6.24462">
        <ele>1089</ele>
        <time>2019-05-21T08:26:42Z</time>
      </trkpt>
      <trkpt lat="46.71326" lon="6.24459">
        <ele>1089</ele>
        <time>2019-05-21T08:27:03Z</time>
      </trkpt>
      <trkpt lat="46.71334" lon="6.24454">
        <ele>1088</ele>
        <time>2019-05-21T08:28:06Z</time>
      </trkpt>
      <trkpt lat="46.71331" lon="6.24475">
        <ele>1091</ele>
        <time>2019-05-21T08:28:23Z</time>
      </trkpt>
      <trkpt lat="46.71341" lon="6.24472">
        <ele>1091</ele>
        <time>2019-05-21T08:29:31Z</time>
      </trkpt>
      <trkpt lat="46.71337" lon="6.24461">
        <ele>1093</ele>
        <time>2019-05-21T08:30:49Z</time>
      </trkpt>
      <trkpt lat="46.71329" lon="6.2447">
        <ele>1095</ele>
        <time>2019-05-21T08:32:16Z</time>
      </trkpt>
      <trkpt lat="46.71331" lon="6.2445">
        <ele>1095</ele>
        <time>2019-05-21T08:32:40Z</time>
      </trkpt>
      <trkpt lat="46.71345" lon="6.24453">
        <ele>1092</ele>
        <time>2019-05-21T08:33:25Z</time>
      </trkpt>
      <trkpt lat="46.7136" lon="6.2446">
        <ele>1091</ele>
        <time>2019-05-21T08:34:07Z</time>
      </trkpt>
      <trkpt lat="46.71371" lon="6.24462">
        <ele>1091</ele>
        <time>2019-05-21T08:34:16Z</time>
      </trkpt>
      <trkpt lat="46.7139" lon="6.24466">
        <ele>1093</ele>
        <time>2019-05-21T08:34:34Z</time>
      </trkpt>
      <trkpt lat="46.71397" lon="6.24475">
        <ele>1093</ele>
        <time>2019-05-21T08:34:43Z</time>
      </trkpt>
      <trkpt lat="46.71401" lon="6.24489">
        <ele>1092</ele>
        <time>2019-05-21T08:34:53Z</time>
      </trkpt>
      <trkpt lat="46.7141" lon="6.24494">
        <ele>1093</ele>
        <time>2019-05-21T08:35:03Z</time>
      </trkpt>
      <trkpt lat="46.71419" lon="6.245">
        <ele>1093</ele>
        <time>2019-05-21T08:35:14Z</time>
      </trkpt>
      <trkpt lat="46.71429" lon="6.24502">
        <ele>1094</ele>
        <time>2019-05-21T08:35:21Z</time>
      </trkpt>
      <trkpt lat="46.71446" lon="6.24521">
        <ele>1094</ele>
        <time>2019-05-21T08:35:42Z</time>
      </trkpt>
      <trkpt lat="46.71453" lon="6.24531">
        <ele>1095</ele>
        <time>2019-05-21T08:35:51Z</time>
      </trkpt>
      <trkpt lat="46.71459" lon="6.24542">
        <ele>1094</ele>
        <time>2019-05-21T08:36:01Z</time>
      </trkpt>
      <trkpt lat="46.71469" lon="6.24575">
        <ele>1094</ele>
        <time>2019-05-21T08:36:25Z</time>
      </trkpt>
      <trkpt lat="46.71477" lon="6.24599">
        <ele>1094</ele>
        <time>2019-05-21T08:36:42Z</time>
      </trkpt>
      <trkpt lat="46.71482" lon="6.24611">
        <ele>1094</ele>
        <time>2019-05-21T08:36:50Z</time>
      </trkpt>
      <trkpt lat="46.71489" lon="6.2462">
        <ele>1095</ele>
        <time>2019-05-21T08:37:00Z</time>
      </trkpt>
      <trkpt lat="46.71502" lon="6.24644">
        <ele>1095</ele>
        <time>2019-05-21T08:37:24Z</time>
      </trkpt>
      <trkpt lat="46.71513" lon="6.24664">
        <ele>1095</ele>
        <time>2019-05-21T08:37:42Z</time>
      </trkpt>
      <trkpt lat="46.71526" lon="6.24675">
        <ele>1095</ele>
        <time>2019-05-21T08:37:57Z</time>
      </trkpt>
      <trkpt lat="46.71536" lon="6.24679">
        <ele>1096</ele>
        <time>2019-05-21T08:38:04Z</time>
      </trkpt>
      <trkpt lat="46.71544" lon="6.24681">
        <ele>1096</ele>
        <time>2019-05-21T08:38:13Z</time>
      </trkpt>
      <trkpt lat="46.71552" lon="6.24688">
        <ele>1096</ele>
        <time>2019-05-21T08:38:25Z</time>
      </trkpt>
      <trkpt lat="46.71561" lon="6.24691">
        <ele>1095</ele>
        <time>2019-05-21T08:38:43Z</time>
      </trkpt>
      <trkpt lat="46.7159" lon="6.24701">
        <ele>1092</ele>
        <time>2019-05-21T08:39:22Z</time>
      </trkpt>
      <trkpt lat="46.71607" lon="6.24709">
        <ele>1087</ele>
        <time>2019-05-21T08:39:48Z</time>
      </trkpt>
      <trkpt lat="46.71626" lon="6.24711">
        <ele>1087</ele>
        <time>2019-05-21T08:40:04Z</time>
      </trkpt>
      <trkpt lat="46.71637" lon="6.24715">
        <ele>1084</ele>
        <time>2019-05-21T08:40:19Z</time>
      </trkpt>
      <trkpt lat="46.7165" lon="6.24717">
        <ele>1083</ele>
        <time>2019-05-21T08:40:35Z</time>
      </trkpt>
      <trkpt lat="46.7166" lon="6.24719">
        <ele>1083</ele>
        <time>2019-05-21T08:40:44Z</time>
      </trkpt>
      <trkpt lat="46.71677" lon="6.2473">
        <ele>1081</ele>
        <time>2019-05-21T08:41:08Z</time>
      </trkpt>
      <trkpt lat="46.71685" lon="6.24733">
        <ele>1080</ele>
        <time>2019-05-21T08:41:17Z</time>
      </trkpt>
      <trkpt lat="46.71696" lon="6.24734">
        <ele>1079</ele>
        <time>2019-05-21T08:41:29Z</time>
      </trkpt>
      <trkpt lat="46.71706" lon="6.24734">
        <ele>1077</ele>
        <time>2019-05-21T08:41:41Z</time>
      </trkpt>
      <trkpt lat="46.71721" lon="6.24749">
        <ele>1071</ele>
        <time>2019-05-21T08:42:08Z</time>
      </trkpt>
      <trkpt lat="46.7173" lon="6.24756">
        <ele>1070</ele>
        <time>2019-05-21T08:42:20Z</time>
      </trkpt>
      <trkpt lat="46.71738" lon="6.24766">
        <ele>1068</ele>
        <time>2019-05-21T08:42:30Z</time>
      </trkpt>
      <trkpt lat="46.71753" lon="6.24774">
        <ele>1062</ele>
        <time>2019-05-21T08:42:48Z</time>
      </trkpt>
      <trkpt lat="46.71761" lon="6.24784">
        <ele>1062</ele>
        <time>2019-05-21T08:42:58Z</time>
      </trkpt>
      <trkpt lat="46.71771" lon="6.24786">
        <ele>1061</ele>
        <time>2019-05-21T08:43:14Z</time>
      </trkpt>
      <trkpt lat="46.71805" lon="6.24804">
        <ele>1057</ele>
        <time>2019-05-21T08:43:48Z</time>
      </trkpt>
      <trkpt lat="46.71817" lon="6.24802">
        <ele>1056</ele>
        <time>2019-05-21T08:43:57Z</time>
      </trkpt>
      <trkpt lat="46.71837" lon="6.24809">
        <ele>1052</ele>
        <time>2019-05-21T08:44:29Z</time>
      </trkpt>
      <trkpt lat="46.71845" lon="6.24798">
        <ele>1043</ele>
        <time>2019-05-21T08:45:00Z</time>
      </trkpt>
      <trkpt lat="46.71865" lon="6.248">
        <ele>1041</ele>
        <time>2019-05-21T08:45:18Z</time>
      </trkpt>
      <trkpt lat="46.71874" lon="6.24799">
        <ele>1040</ele>
        <time>2019-05-21T08:45:26Z</time>
      </trkpt>
      <trkpt lat="46.71893" lon="6.24788">
        <ele>1035</ele>
        <time>2019-05-21T08:45:53Z</time>
      </trkpt>
      <trkpt lat="46.71921" lon="6.2479">
        <ele>1030</ele>
        <time>2019-05-21T08:46:33Z</time>
      </trkpt>
      <trkpt lat="46.71931" lon="6.24791">
        <ele>1029</ele>
        <time>2019-05-21T08:46:42Z</time>
      </trkpt>
      <trkpt lat="46.71936" lon="6.24792">
        <ele>1030</ele>
        <time>2019-05-21T08:46:46Z</time>
      </trkpt>
      <trkpt lat="46.7194" lon="6.24793">
        <ele>1029</ele>
        <time>2019-05-21T08:46:50Z</time>
      </trkpt>
      <trkpt lat="46.71954" lon="6.248">
        <ele>1028</ele>
        <time>2019-05-21T08:47:02Z</time>
      </trkpt>
      <trkpt lat="46.71954" lon="6.248">
        <ele>1022</ele>
        <time>2019-05-21T08:47:15Z</time>
      </trkpt>
      <trkpt lat="46.71949" lon="6.24801">
        <ele>1020</ele>
        <time>2019-05-21T08:47:18Z</time>
      </trkpt>
      <trkpt lat="46.71951" lon="6.24807">
        <ele>1018</ele>
        <time>2019-05-21T08:47:23Z</time>
      </trkpt>
      <trkpt lat="46.71956" lon="6.24812">
        <ele>1019</ele>
        <time>2019-05-21T08:47:27Z</time>
      </trkpt>
      <trkpt lat="46.71969" lon="6.24824">
        <ele>1016</ele>
        <time>2019-05-21T08:47:39Z</time>
      </trkpt>
      <trkpt lat="46.71977" lon="6.24832">
        <ele>1016</ele>
        <time>2019-05-21T08:47:47Z</time>
      </trkpt>
      <trkpt lat="46.71985" lon="6.2484">
        <ele>1016</ele>
        <time>2019-05-21T08:47:55Z</time>
      </trkpt>
      <trkpt lat="46.71991" lon="6.24851">
        <ele>1015</ele>
        <time>2019-05-21T08:48:04Z</time>
      </trkpt>
      <trkpt lat="46.71996" lon="6.24864">
        <ele>1015</ele>
        <time>2019-05-21T08:48:12Z</time>
      </trkpt>
      <trkpt lat="46.72002" lon="6.24877">
        <ele>1015</ele>
        <time>2019-05-21T08:48:20Z</time>
      </trkpt>
      <trkpt lat="46.72017" lon="6.24894">
        <ele>1016</ele>
        <time>2019-05-21T08:48:36Z</time>
      </trkpt>
      <trkpt lat="46.7203" lon="6.24913">
        <ele>1015</ele>
        <time>2019-05-21T08:48:50Z</time>
      </trkpt>
      <trkpt lat="46.7204" lon="6.24917">
        <ele>1014</ele>
        <time>2019-05-21T08:48:59Z</time>
      </trkpt>
      <trkpt lat="46.72048" lon="6.24925">
        <ele>1015</ele>
        <time>2019-05-21T08:49:06Z</time>
      </trkpt>
      <trkpt lat="46.72056" lon="6.24935">
        <ele>1015</ele>
        <time>2019-05-21T08:49:14Z</time>
      </trkpt>
      <trkpt lat="46.72062" lon="6.24944">
        <ele>1014</ele>
        <time>2019-05-21T08:49:22Z</time>
      </trkpt>
      <trkpt lat="46.7207" lon="6.24954">
        <ele>1014</ele>
        <time>2019-05-21T08:49:30Z</time>
      </trkpt>
      <trkpt lat="46.72078" lon="6.24963">
        <ele>1015</ele>
        <time>2019-05-21T08:49:37Z</time>
      </trkpt>
      <trkpt lat="46.72109" lon="6.24995">
        <ele>1009</ele>
        <time>2019-05-21T08:50:09Z</time>
      </trkpt>
      <trkpt lat="46.72116" lon="6.25005">
        <ele>1009</ele>
        <time>2019-05-21T08:50:17Z</time>
      </trkpt>
      <trkpt lat="46.72122" lon="6.25015">
        <ele>1009</ele>
        <time>2019-05-21T08:50:24Z</time>
      </trkpt>
      <trkpt lat="46.72132" lon="6.25019">
        <ele>1009</ele>
        <time>2019-05-21T08:50:33Z</time>
      </trkpt>
      <trkpt lat="46.72151" lon="6.25013">
        <ele>1007</ele>
        <time>2019-05-21T08:50:49Z</time>
      </trkpt>
      <trkpt lat="46.72172" lon="6.24988">
        <ele>1000</ele>
        <time>2019-05-21T08:51:16Z</time>
      </trkpt>
      <trkpt lat="46.7218" lon="6.24982">
        <ele>998</ele>
        <time>2019-05-21T08:51:24Z</time>
      </trkpt>
      <trkpt lat="46.72187" lon="6.24972">
        <ele>997</ele>
        <time>2019-05-21T08:51:32Z</time>
      </trkpt>
      <trkpt lat="46.72191" lon="6.24961">
        <ele>996</ele>
        <time>2019-05-21T08:51:40Z</time>
      </trkpt>
      <trkpt lat="46.72194" lon="6.24947">
        <ele>995</ele>
        <time>2019-05-21T08:51:48Z</time>
      </trkpt>
      <trkpt lat="46.72196" lon="6.24913">
        <ele>993</ele>
        <time>2019-05-21T08:52:09Z</time>
      </trkpt>
      <trkpt lat="46.72196" lon="6.24906">
        <ele>992</ele>
        <time>2019-05-21T08:52:13Z</time>
      </trkpt>
      <trkpt lat="46.72196" lon="6.24898">
        <ele>991</ele>
        <time>2019-05-21T08:52:18Z</time>
      </trkpt>
      <trkpt lat="46.72197" lon="6.2489">
        <ele>990</ele>
        <time>2019-05-21T08:52:23Z</time>
      </trkpt>
      <trkpt lat="46.72198" lon="6.24882">
        <ele>990</ele>
        <time>2019-05-21T08:52:28Z</time>
      </trkpt>
      <trkpt lat="46.72207" lon="6.24849">
        <ele>987</ele>
        <time>2019-05-21T08:52:48Z</time>
      </trkpt>
      <trkpt lat="46.72209" lon="6.24843">
        <ele>987</ele>
        <time>2019-05-21T08:52:52Z</time>
      </trkpt>
      <trkpt lat="46.72211" lon="6.24835">
        <ele>986</ele>
        <time>2019-05-21T08:52:57Z</time>
      </trkpt>
      <trkpt lat="46.72225" lon="6.24782">
        <ele>982</ele>
        <time>2019-05-21T08:53:31Z</time>
      </trkpt>
      <trkpt lat="46.72236" lon="6.2473">
        <ele>976</ele>
        <time>2019-05-21T08:54:03Z</time>
      </trkpt>
      <trkpt lat="46.7224" lon="6.24702">
        <ele>974</ele>
        <time>2019-05-21T08:54:19Z</time>
      </trkpt>
      <trkpt lat="46.72244" lon="6.24689">
        <ele>974</ele>
        <time>2019-05-21T08:54:27Z</time>
      </trkpt>
      <trkpt lat="46.72256" lon="6.24666">
        <ele>972</ele>
        <time>2019-05-21T08:54:43Z</time>
      </trkpt>
      <trkpt lat="46.72265" lon="6.2466">
        <ele>970</ele>
        <time>2019-05-21T08:54:52Z</time>
      </trkpt>
      <trkpt lat="46.7227" lon="6.24656">
        <ele>967</ele>
        <time>2019-05-21T08:55:29Z</time>
      </trkpt>
      <trkpt lat="46.7228" lon="6.24653">
        <ele>963</ele>
        <time>2019-05-21T08:55:39Z</time>
      </trkpt>
      <trkpt lat="46.72284" lon="6.24654">
        <ele>963</ele>
        <time>2019-05-21T08:55:43Z</time>
      </trkpt>
      <trkpt lat="46.72296" lon="6.2465">
        <ele>962</ele>
        <time>2019-05-21T08:55:54Z</time>
      </trkpt>
      <trkpt lat="46.72301" lon="6.24648">
        <ele>962</ele>
        <time>2019-05-21T08:55:58Z</time>
      </trkpt>
      <trkpt lat="46.72306" lon="6.24647">
        <ele>961</ele>
        <time>2019-05-21T08:56:02Z</time>
      </trkpt>
      <trkpt lat="46.72315" lon="6.24642">
        <ele>961</ele>
        <time>2019-05-21T08:56:12Z</time>
      </trkpt>
      <trkpt lat="46.72324" lon="6.24635">
        <ele>960</ele>
        <time>2019-05-21T08:56:22Z</time>
      </trkpt>
      <trkpt lat="46.72337" lon="6.24623">
        <ele>957</ele>
        <time>2019-05-21T08:56:34Z</time>
      </trkpt>
      <trkpt lat="46.72341" lon="6.2462">
        <ele>956</ele>
        <time>2019-05-21T08:56:38Z</time>
      </trkpt>
      <trkpt lat="46.72349" lon="6.24611">
        <ele>955</ele>
        <time>2019-05-21T08:56:47Z</time>
      </trkpt>
      <trkpt lat="46.72387" lon="6.24583">
        <ele>951</ele>
        <time>2019-05-21T08:57:19Z</time>
      </trkpt>
      <trkpt lat="46.72401" lon="6.24573">
        <ele>951</ele>
        <time>2019-05-21T08:57:31Z</time>
      </trkpt>
      <trkpt lat="46.7241" lon="6.24567">
        <ele>949</ele>
        <time>2019-05-21T08:57:39Z</time>
      </trkpt>
      <trkpt lat="46.72419" lon="6.24559">
        <ele>949</ele>
        <time>2019-05-21T08:57:47Z</time>
      </trkpt>
      <trkpt lat="46.72425" lon="6.24555">
        <ele>949</ele>
        <time>2019-05-21T08:57:51Z</time>
      </trkpt>
      <trkpt lat="46.72429" lon="6.24553">
        <ele>948</ele>
        <time>2019-05-21T08:57:55Z</time>
      </trkpt>
      <trkpt lat="46.72437" lon="6.24547">
        <ele>947</ele>
        <time>2019-05-21T08:58:02Z</time>
      </trkpt>
      <trkpt lat="46.72443" lon="6.24544">
        <ele>947</ele>
        <time>2019-05-21T08:58:06Z</time>
      </trkpt>
      <trkpt lat="46.72451" lon="6.24537">
        <ele>946</ele>
        <time>2019-05-21T08:58:14Z</time>
      </trkpt>
      <trkpt lat="46.72465" lon="6.24526">
        <ele>946</ele>
        <time>2019-05-21T08:58:25Z</time>
      </trkpt>
      <trkpt lat="46.7247" lon="6.24522">
        <ele>946</ele>
        <time>2019-05-21T08:58:30Z</time>
      </trkpt>
      <trkpt lat="46.72474" lon="6.24518">
        <ele>947</ele>
        <time>2019-05-21T08:58:34Z</time>
      </trkpt>
      <trkpt lat="46.72485" lon="6.2451">
        <ele>947</ele>
        <time>2019-05-21T08:58:42Z</time>
      </trkpt>
      <trkpt lat="46.72492" lon="6.24501">
        <ele>946</ele>
        <time>2019-05-21T08:58:49Z</time>
      </trkpt>
      <trkpt lat="46.72496" lon="6.24495">
        <ele>947</ele>
        <time>2019-05-21T08:58:53Z</time>
      </trkpt>
      <trkpt lat="46.72502" lon="6.24482">
        <ele>945</ele>
        <time>2019-05-21T08:59:01Z</time>
      </trkpt>
      <trkpt lat="46.72504" lon="6.24475">
        <ele>945</ele>
        <time>2019-05-21T08:59:05Z</time>
      </trkpt>
      <trkpt lat="46.72509" lon="6.24453">
        <ele>944</ele>
        <time>2019-05-21T08:59:17Z</time>
      </trkpt>
      <trkpt lat="46.72509" lon="6.24446">
        <ele>944</ele>
        <time>2019-05-21T08:59:21Z</time>
      </trkpt>
      <trkpt lat="46.72521" lon="6.24394">
        <ele>942</ele>
        <time>2019-05-21T08:59:52Z</time>
      </trkpt>
      <trkpt lat="46.72525" lon="6.24387">
        <ele>941</ele>
        <time>2019-05-21T08:59:56Z</time>
      </trkpt>
      <trkpt lat="46.72528" lon="6.24383">
        <ele>942</ele>
        <time>2019-05-21T09:00:00Z</time>
      </trkpt>
      <trkpt lat="46.72532" lon="6.24379">
        <ele>941</ele>
        <time>2019-05-21T09:00:04Z</time>
      </trkpt>
      <trkpt lat="46.72537" lon="6.24375">
        <ele>942</ele>
        <time>2019-05-21T09:00:08Z</time>
      </trkpt>
      <trkpt lat="46.72546" lon="6.2437">
        <ele>942</ele>
        <time>2019-05-21T09:00:14Z</time>
      </trkpt>
      <trkpt lat="46.7256" lon="6.24363">
        <ele>941</ele>
        <time>2019-05-21T09:00:25Z</time>
      </trkpt>
      <trkpt lat="46.72576" lon="6.24357">
        <ele>939</ele>
        <time>2019-05-21T09:00:37Z</time>
      </trkpt>
      <trkpt lat="46.7258" lon="6.24355">
        <ele>939</ele>
        <time>2019-05-21T09:00:40Z</time>
      </trkpt>
      <trkpt lat="46.72585" lon="6.24355">
        <ele>940</ele>
        <time>2019-05-21T09:00:44Z</time>
      </trkpt>
      <trkpt lat="46.7259" lon="6.24353">
        <ele>939</ele>
        <time>2019-05-21T09:00:48Z</time>
      </trkpt>
      <trkpt lat="46.726" lon="6.24348">
        <ele>938</ele>
        <time>2019-05-21T09:00:56Z</time>
      </trkpt>
      <trkpt lat="46.7261" lon="6.24343">
        <ele>938</ele>
        <time>2019-05-21T09:01:04Z</time>
      </trkpt>
      <trkpt lat="46.72615" lon="6.24341">
        <ele>938</ele>
        <time>2019-05-21T09:01:08Z</time>
      </trkpt>
      <trkpt lat="46.7262" lon="6.24339">
        <ele>938</ele>
        <time>2019-05-21T09:01:12Z</time>
      </trkpt>
      <trkpt lat="46.72629" lon="6.24337">
        <ele>936</ele>
        <time>2019-05-21T09:01:20Z</time>
      </trkpt>
      <trkpt lat="46.72639" lon="6.24336">
        <ele>935</ele>
        <time>2019-05-21T09:01:28Z</time>
      </trkpt>
      <trkpt lat="46.72648" lon="6.24332">
        <ele>934</ele>
        <time>2019-05-21T09:01:36Z</time>
      </trkpt>
      <trkpt lat="46.72653" lon="6.24327">
        <ele>933</ele>
        <time>2019-05-21T09:01:41Z</time>
      </trkpt>
      <trkpt lat="46.72658" lon="6.24325">
        <ele>933</ele>
        <time>2019-05-21T09:01:45Z</time>
      </trkpt>
      <trkpt lat="46.72663" lon="6.24324">
        <ele>932</ele>
        <time>2019-05-21T09:01:49Z</time>
      </trkpt>
      <trkpt lat="46.72668" lon="6.24322">
        <ele>932</ele>
        <time>2019-05-21T09:01:53Z</time>
      </trkpt>
      <trkpt lat="46.72693" lon="6.24313">
        <ele>929</ele>
        <time>2019-05-21T09:02:15Z</time>
      </trkpt>
      <trkpt lat="46.72698" lon="6.2431">
        <ele>929</ele>
        <time>2019-05-21T09:02:19Z</time>
      </trkpt>
      <trkpt lat="46.72703" lon="6.2431">
        <ele>929</ele>
        <time>2019-05-21T09:02:23Z</time>
      </trkpt>
      <trkpt lat="46.72708" lon="6.24307">
        <ele>929</ele>
        <time>2019-05-21T09:02:27Z</time>
      </trkpt>
      <trkpt lat="46.72718" lon="6.24304">
        <ele>929</ele>
        <time>2019-05-21T09:02:35Z</time>
      </trkpt>
      <trkpt lat="46.72722" lon="6.24303">
        <ele>928</ele>
        <time>2019-05-21T09:02:39Z</time>
      </trkpt>
      <trkpt lat="46.72733" lon="6.24303">
        <ele>928</ele>
        <time>2019-05-21T09:02:47Z</time>
      </trkpt>
      <trkpt lat="46.72739" lon="6.24301">
        <ele>927</ele>
        <time>2019-05-21T09:02:52Z</time>
      </trkpt>
      <trkpt lat="46.72743" lon="6.24299">
        <ele>928</ele>
        <time>2019-05-21T09:02:56Z</time>
      </trkpt>
      <trkpt lat="46.72748" lon="6.24295">
        <ele>929</ele>
        <time>2019-05-21T09:03:00Z</time>
      </trkpt>
      <trkpt lat="46.72753" lon="6.24293">
        <ele>928</ele>
        <time>2019-05-21T09:03:04Z</time>
      </trkpt>
      <trkpt lat="46.72757" lon="6.24293">
        <ele>928</ele>
        <time>2019-05-21T09:03:08Z</time>
      </trkpt>
      <trkpt lat="46.72767" lon="6.24293">
        <ele>928</ele>
        <time>2019-05-21T09:03:18Z</time>
      </trkpt>
      <trkpt lat="46.72773" lon="6.24285">
        <ele>928</ele>
        <time>2019-05-21T09:03:31Z</time>
      </trkpt>
      <trkpt lat="46.72777" lon="6.2428">
        <ele>928</ele>
        <time>2019-05-21T09:03:35Z</time>
      </trkpt>
      <trkpt lat="46.72782" lon="6.24273">
        <ele>930</ele>
        <time>2019-05-21T09:03:49Z</time>
      </trkpt>
      <trkpt lat="46.72783" lon="6.24265">
        <ele>929</ele>
        <time>2019-05-21T09:03:54Z</time>
      </trkpt>
      <trkpt lat="46.72785" lon="6.24244">
        <ele>929</ele>
        <time>2019-05-21T09:04:07Z</time>
      </trkpt>
      <trkpt lat="46.72787" lon="6.24221">
        <ele>927</ele>
        <time>2019-05-21T09:04:20Z</time>
      </trkpt>
      <trkpt lat="46.72788" lon="6.24214">
        <ele>927</ele>
        <time>2019-05-21T09:04:24Z</time>
      </trkpt>
      <trkpt lat="46.72789" lon="6.24207">
        <ele>927</ele>
        <time>2019-05-21T09:04:28Z</time>
      </trkpt>
      <trkpt lat="46.72791" lon="6.24191">
        <ele>927</ele>
        <time>2019-05-21T09:04:38Z</time>
      </trkpt>
      <trkpt lat="46.72794" lon="6.24177">
        <ele>927</ele>
        <time>2019-05-21T09:04:47Z</time>
      </trkpt>
      <trkpt lat="46.72796" lon="6.24163">
        <ele>926</ele>
        <time>2019-05-21T09:04:55Z</time>
      </trkpt>
      <trkpt lat="46.72797" lon="6.24156">
        <ele>926</ele>
        <time>2019-05-21T09:04:59Z</time>
      </trkpt>
      <trkpt lat="46.72806" lon="6.24101">
        <ele>922</ele>
        <time>2019-05-21T09:05:32Z</time>
      </trkpt>
      <trkpt lat="46.72809" lon="6.24072">
        <ele>923</ele>
        <time>2019-05-21T09:05:49Z</time>
      </trkpt>
      <trkpt lat="46.72809" lon="6.24065">
        <ele>922</ele>
        <time>2019-05-21T09:05:53Z</time>
      </trkpt>
      <trkpt lat="46.72811" lon="6.24051">
        <ele>922</ele>
        <time>2019-05-21T09:06:01Z</time>
      </trkpt>
      <trkpt lat="46.72812" lon="6.24037">
        <ele>922</ele>
        <time>2019-05-21T09:06:09Z</time>
      </trkpt>
      <trkpt lat="46.72814" lon="6.24023">
        <ele>922</ele>
        <time>2019-05-21T09:06:17Z</time>
      </trkpt>
      <trkpt lat="46.72817" lon="6.23994">
        <ele>921</ele>
        <time>2019-05-21T09:06:34Z</time>
      </trkpt>
      <trkpt lat="46.72818" lon="6.23987">
        <ele>922</ele>
        <time>2019-05-21T09:07:01Z</time>
      </trkpt>
      <trkpt lat="46.72817" lon="6.23978">
        <ele>921</ele>
        <time>2019-05-21T09:07:13Z</time>
      </trkpt>
      <trkpt lat="46.7282" lon="6.23971">
        <ele>923</ele>
        <time>2019-05-21T09:07:20Z</time>
      </trkpt>
      <trkpt lat="46.72817" lon="6.23958">
        <ele>923</ele>
        <time>2019-05-21T09:07:28Z</time>
      </trkpt>
      <trkpt lat="46.72809" lon="6.23938">
        <ele>922</ele>
        <time>2019-05-21T09:07:40Z</time>
      </trkpt>
      <trkpt lat="46.72807" lon="6.23931">
        <ele>922</ele>
        <time>2019-05-21T09:07:44Z</time>
      </trkpt>
      <trkpt lat="46.72804" lon="6.23925">
        <ele>921</ele>
        <time>2019-05-21T09:07:48Z</time>
      </trkpt>
      <trkpt lat="46.728" lon="6.23918">
        <ele>920</ele>
        <time>2019-05-21T09:07:53Z</time>
      </trkpt>
      <trkpt lat="46.72795" lon="6.23905">
        <ele>919</ele>
        <time>2019-05-21T09:08:01Z</time>
      </trkpt>
      <trkpt lat="46.72792" lon="6.23899">
        <ele>919</ele>
        <time>2019-05-21T09:08:04Z</time>
      </trkpt>
      <trkpt lat="46.72788" lon="6.23894">
        <ele>919</ele>
        <time>2019-05-21T09:08:08Z</time>
      </trkpt>
      <trkpt lat="46.72785" lon="6.23888">
        <ele>918</ele>
        <time>2019-05-21T09:08:12Z</time>
      </trkpt>
      <trkpt lat="46.72779" lon="6.23877">
        <ele>918</ele>
        <time>2019-05-21T09:08:20Z</time>
      </trkpt>
      <trkpt lat="46.72774" lon="6.23866">
        <ele>918</ele>
        <time>2019-05-21T09:08:28Z</time>
      </trkpt>
      <trkpt lat="46.72771" lon="6.23859">
        <ele>918</ele>
        <time>2019-05-21T09:08:32Z</time>
      </trkpt>
      <trkpt lat="46.72767" lon="6.23846">
        <ele>918</ele>
        <time>2019-05-21T09:08:40Z</time>
      </trkpt>
      <trkpt lat="46.72756" lon="6.2383">
        <ele>919</ele>
        <time>2019-05-21T09:08:52Z</time>
      </trkpt>
      <trkpt lat="46.72752" lon="6.23826">
        <ele>918</ele>
        <time>2019-05-21T09:08:55Z</time>
      </trkpt>
      <trkpt lat="46.72732" lon="6.23813">
        <ele>922</ele>
        <time>2019-05-21T09:09:14Z</time>
      </trkpt>
      <trkpt lat="46.72727" lon="6.2381">
        <ele>921</ele>
        <time>2019-05-21T09:09:18Z</time>
      </trkpt>
      <trkpt lat="46.72709" lon="6.23796">
        <ele>923</ele>
        <time>2019-05-21T09:09:37Z</time>
      </trkpt>
      <trkpt lat="46.72693" lon="6.23777">
        <ele>922</ele>
        <time>2019-05-21T09:09:54Z</time>
      </trkpt>
      <trkpt lat="46.72689" lon="6.23772">
        <ele>923</ele>
        <time>2019-05-21T09:09:58Z</time>
      </trkpt>
      <trkpt lat="46.72685" lon="6.23767">
        <ele>922</ele>
        <time>2019-05-21T09:10:02Z</time>
      </trkpt>
      <trkpt lat="46.72681" lon="6.23763">
        <ele>921</ele>
        <time>2019-05-21T09:10:06Z</time>
      </trkpt>
      <trkpt lat="46.72677" lon="6.23759">
        <ele>921</ele>
        <time>2019-05-21T09:10:10Z</time>
      </trkpt>
      <trkpt lat="46.72665" lon="6.23744">
        <ele>922</ele>
        <time>2019-05-21T09:10:24Z</time>
      </trkpt>
      <trkpt lat="46.72657" lon="6.23736">
        <ele>921</ele>
        <time>2019-05-21T09:10:32Z</time>
      </trkpt>
      <trkpt lat="46.72649" lon="6.23727">
        <ele>922</ele>
        <time>2019-05-21T09:10:40Z</time>
      </trkpt>
      <trkpt lat="46.72644" lon="6.23723">
        <ele>922</ele>
        <time>2019-05-21T09:10:44Z</time>
      </trkpt>
      <trkpt lat="46.7264" lon="6.23719">
        <ele>922</ele>
        <time>2019-05-21T09:10:48Z</time>
      </trkpt>
      <trkpt lat="46.72634" lon="6.2371">
        <ele>922</ele>
        <time>2019-05-21T09:10:55Z</time>
      </trkpt>
      <trkpt lat="46.72626" lon="6.23699">
        <ele>923</ele>
        <time>2019-05-21T09:11:04Z</time>
      </trkpt>
      <trkpt lat="46.72611" lon="6.23669">
        <ele>923</ele>
        <time>2019-05-21T09:11:23Z</time>
      </trkpt>
      <trkpt lat="46.72609" lon="6.23663">
        <ele>923</ele>
        <time>2019-05-21T09:11:27Z</time>
      </trkpt>
      <trkpt lat="46.72607" lon="6.23656">
        <ele>923</ele>
        <time>2019-05-21T09:11:31Z</time>
      </trkpt>
      <trkpt lat="46.72601" lon="6.23636">
        <ele>924</ele>
        <time>2019-05-21T09:11:43Z</time>
      </trkpt>
      <trkpt lat="46.72596" lon="6.23622">
        <ele>923</ele>
        <time>2019-05-21T09:11:51Z</time>
      </trkpt>
      <trkpt lat="46.72593" lon="6.23615">
        <ele>923</ele>
        <time>2019-05-21T09:11:55Z</time>
      </trkpt>
      <trkpt lat="46.72586" lon="6.23596">
        <ele>924</ele>
        <time>2019-05-21T09:12:07Z</time>
      </trkpt>
      <trkpt lat="46.72583" lon="6.23589">
        <ele>924</ele>
        <time>2019-05-21T09:12:11Z</time>
      </trkpt>
      <trkpt lat="46.7258" lon="6.23583">
        <ele>923</ele>
        <time>2019-05-21T09:12:15Z</time>
      </trkpt>
      <trkpt lat="46.72562" lon="6.23562">
        <ele>924</ele>
        <time>2019-05-21T09:12:36Z</time>
      </trkpt>
      <trkpt lat="46.72558" lon="6.23557">
        <ele>924</ele>
        <time>2019-05-21T09:12:39Z</time>
      </trkpt>
      <trkpt lat="46.7255" lon="6.23549">
        <ele>925</ele>
        <time>2019-05-21T09:12:47Z</time>
      </trkpt>
      <trkpt lat="46.72546" lon="6.23545">
        <ele>924</ele>
        <time>2019-05-21T09:12:52Z</time>
      </trkpt>
      <trkpt lat="46.72542" lon="6.23541">
        <ele>925</ele>
        <time>2019-05-21T09:12:56Z</time>
      </trkpt>
      <trkpt lat="46.72535" lon="6.23531">
        <ele>924</ele>
        <time>2019-05-21T09:13:04Z</time>
      </trkpt>
      <trkpt lat="46.72529" lon="6.2352">
        <ele>925</ele>
        <time>2019-05-21T09:13:12Z</time>
      </trkpt>
      <trkpt lat="46.7251" lon="6.23468">
        <ele>926</ele>
        <time>2019-05-21T09:13:45Z</time>
      </trkpt>
      <trkpt lat="46.72507" lon="6.23461">
        <ele>925</ele>
        <time>2019-05-21T09:13:50Z</time>
      </trkpt>
      <trkpt lat="46.72504" lon="6.23455">
        <ele>925</ele>
        <time>2019-05-21T09:13:54Z</time>
      </trkpt>
      <trkpt lat="46.72497" lon="6.23442">
        <ele>926</ele>
        <time>2019-05-21T09:14:02Z</time>
      </trkpt>
      <trkpt lat="46.72488" lon="6.23424">
        <ele>926</ele>
        <time>2019-05-21T09:14:13Z</time>
      </trkpt>
      <trkpt lat="46.72486" lon="6.23418">
        <ele>925</ele>
        <time>2019-05-21T09:14:17Z</time>
      </trkpt>
      <trkpt lat="46.72476" lon="6.23401">
        <ele>926</ele>
        <time>2019-05-21T09:14:30Z</time>
      </trkpt>
      <trkpt lat="46.72463" lon="6.23379">
        <ele>924</ele>
        <time>2019-05-21T09:14:47Z</time>
      </trkpt>
      <trkpt lat="46.72459" lon="6.23369">
        <ele>924</ele>
        <time>2019-05-21T09:14:55Z</time>
      </trkpt>
      <trkpt lat="46.72456" lon="6.23362">
        <ele>925</ele>
        <time>2019-05-21T09:14:58Z</time>
      </trkpt>
      <trkpt lat="46.72446" lon="6.2334">
        <ele>925</ele>
        <time>2019-05-21T09:15:14Z</time>
      </trkpt>
      <trkpt lat="46.72444" lon="6.23334">
        <ele>926</ele>
        <time>2019-05-21T09:15:17Z</time>
      </trkpt>
      <trkpt lat="46.72442" lon="6.23329">
        <ele>926</ele>
        <time>2019-05-21T09:15:20Z</time>
      </trkpt>
      <trkpt lat="46.72431" lon="6.23303">
        <ele>927</ele>
        <time>2019-05-21T09:15:36Z</time>
      </trkpt>
      <trkpt lat="46.72428" lon="6.23297">
        <ele>928</ele>
        <time>2019-05-21T09:15:41Z</time>
      </trkpt>
      <trkpt lat="46.72425" lon="6.23288">
        <ele>928</ele>
        <time>2019-05-21T09:15:48Z</time>
      </trkpt>
      <trkpt lat="46.72423" lon="6.23282">
        <ele>928</ele>
        <time>2019-05-21T09:15:52Z</time>
      </trkpt>
      <trkpt lat="46.72419" lon="6.23269">
        <ele>929</ele>
        <time>2019-05-21T09:16:01Z</time>
      </trkpt>
      <trkpt lat="46.72413" lon="6.23259">
        <ele>927</ele>
        <time>2019-05-21T09:18:01Z</time>
      </trkpt>
      <trkpt lat="46.7241" lon="6.23252">
        <ele>927</ele>
        <time>2019-05-21T09:18:05Z</time>
      </trkpt>
      <trkpt lat="46.72394" lon="6.23215">
        <ele>932</ele>
        <time>2019-05-21T09:18:28Z</time>
      </trkpt>
      <trkpt lat="46.72392" lon="6.2321">
        <ele>931</ele>
        <time>2019-05-21T09:18:31Z</time>
      </trkpt>
      <trkpt lat="46.72385" lon="6.23198">
        <ele>931</ele>
        <time>2019-05-21T09:18:40Z</time>
      </trkpt>
      <trkpt lat="46.72382" lon="6.23192">
        <ele>931</ele>
        <time>2019-05-21T09:18:45Z</time>
      </trkpt>
      <trkpt lat="46.72379" lon="6.23185">
        <ele>930</ele>
        <time>2019-05-21T09:18:49Z</time>
      </trkpt>
      <trkpt lat="46.72375" lon="6.23177">
        <ele>931</ele>
        <time>2019-05-21T09:18:56Z</time>
      </trkpt>
      <trkpt lat="46.72373" lon="6.2317">
        <ele>931</ele>
        <time>2019-05-21T09:19:00Z</time>
      </trkpt>
      <trkpt lat="46.72373" lon="6.23162">
        <ele>931</ele>
        <time>2019-05-21T09:19:04Z</time>
      </trkpt>
      <trkpt lat="46.72371" lon="6.23156">
        <ele>930</ele>
        <time>2019-05-21T09:19:07Z</time>
      </trkpt>
      <trkpt lat="46.72366" lon="6.23134">
        <ele>931</ele>
        <time>2019-05-21T09:19:18Z</time>
      </trkpt>
      <trkpt lat="46.72361" lon="6.23112">
        <ele>929</ele>
        <time>2019-05-21T09:19:30Z</time>
      </trkpt>
      <trkpt lat="46.7236" lon="6.23105">
        <ele>930</ele>
        <time>2019-05-21T09:19:34Z</time>
      </trkpt>
      <trkpt lat="46.72352" lon="6.23084">
        <ele>930</ele>
        <time>2019-05-21T09:19:48Z</time>
      </trkpt>
      <trkpt lat="46.72346" lon="6.23073">
        <ele>932</ele>
        <time>2019-05-21T09:19:57Z</time>
      </trkpt>
      <trkpt lat="46.72342" lon="6.23067">
        <ele>932</ele>
        <time>2019-05-21T09:20:01Z</time>
      </trkpt>
      <trkpt lat="46.72333" lon="6.23051">
        <ele>932</ele>
        <time>2019-05-21T09:20:13Z</time>
      </trkpt>
      <trkpt lat="46.7233" lon="6.23046">
        <ele>932</ele>
        <time>2019-05-21T09:20:17Z</time>
      </trkpt>
      <trkpt lat="46.72322" lon="6.23028">
        <ele>933</ele>
        <time>2019-05-21T09:20:29Z</time>
      </trkpt>
      <trkpt lat="46.72318" lon="6.2302">
        <ele>933</ele>
        <time>2019-05-21T09:20:35Z</time>
      </trkpt>
      <trkpt lat="46.72307" lon="6.22988">
        <ele>935</ele>
        <time>2019-05-21T09:20:55Z</time>
      </trkpt>
      <trkpt lat="46.72303" lon="6.22982">
        <ele>935</ele>
        <time>2019-05-21T09:21:00Z</time>
      </trkpt>
      <trkpt lat="46.72301" lon="6.22975">
        <ele>934</ele>
        <time>2019-05-21T09:21:03Z</time>
      </trkpt>
      <trkpt lat="46.72298" lon="6.22969">
        <ele>936</ele>
        <time>2019-05-21T09:21:08Z</time>
      </trkpt>
      <trkpt lat="46.72293" lon="6.22956">
        <ele>936</ele>
        <time>2019-05-21T09:21:17Z</time>
      </trkpt>
      <trkpt lat="46.72291" lon="6.2295">
        <ele>937</ele>
        <time>2019-05-21T09:21:21Z</time>
      </trkpt>
      <trkpt lat="46.72289" lon="6.22943">
        <ele>937</ele>
        <time>2019-05-21T09:21:26Z</time>
      </trkpt>
      <trkpt lat="46.72284" lon="6.22933">
        <ele>937</ele>
        <time>2019-05-21T09:21:33Z</time>
      </trkpt>
      <trkpt lat="46.72282" lon="6.22927">
        <ele>937</ele>
        <time>2019-05-21T09:21:37Z</time>
      </trkpt>
      <trkpt lat="46.72279" lon="6.22921">
        <ele>936</ele>
        <time>2019-05-21T09:21:41Z</time>
      </trkpt>
      <trkpt lat="46.72274" lon="6.22907">
        <ele>936</ele>
        <time>2019-05-21T09:21:49Z</time>
      </trkpt>
      <trkpt lat="46.72271" lon="6.22901">
        <ele>936</ele>
        <time>2019-05-21T09:21:53Z</time>
      </trkpt>
      <trkpt lat="46.72268" lon="6.22895">
        <ele>936</ele>
        <time>2019-05-21T09:21:57Z</time>
      </trkpt>
      <trkpt lat="46.72264" lon="6.22883">
        <ele>937</ele>
        <time>2019-05-21T09:22:04Z</time>
      </trkpt>
      <trkpt lat="46.72253" lon="6.22856">
        <ele>938</ele>
        <time>2019-05-21T09:22:26Z</time>
      </trkpt>
      <trkpt lat="46.72251" lon="6.22849">
        <ele>938</ele>
        <time>2019-05-21T09:22:31Z</time>
      </trkpt>
      <trkpt lat="46.72248" lon="6.22838">
        <ele>938</ele>
        <time>2019-05-21T09:22:46Z</time>
      </trkpt>
      <trkpt lat="46.72243" lon="6.22834">
        <ele>939</ele>
        <time>2019-05-21T09:22:51Z</time>
      </trkpt>
      <trkpt lat="46.72241" lon="6.22829">
        <ele>939</ele>
        <time>2019-05-21T09:22:55Z</time>
      </trkpt>
      <trkpt lat="46.72236" lon="6.22817">
        <ele>940</ele>
        <time>2019-05-21T09:23:03Z</time>
      </trkpt>
      <trkpt lat="46.7223" lon="6.22804">
        <ele>941</ele>
        <time>2019-05-21T09:23:13Z</time>
      </trkpt>
      <trkpt lat="46.72228" lon="6.22797">
        <ele>942</ele>
        <time>2019-05-21T09:23:18Z</time>
      </trkpt>
      <trkpt lat="46.72224" lon="6.22784">
        <ele>942</ele>
        <time>2019-05-21T09:23:26Z</time>
      </trkpt>
      <trkpt lat="46.72219" lon="6.22768">
        <ele>944</ele>
        <time>2019-05-21T09:23:36Z</time>
      </trkpt>
      <trkpt lat="46.72218" lon="6.22762">
        <ele>943</ele>
        <time>2019-05-21T09:23:40Z</time>
      </trkpt>
      <trkpt lat="46.72216" lon="6.22755">
        <ele>944</ele>
        <time>2019-05-21T09:23:45Z</time>
      </trkpt>
      <trkpt lat="46.72213" lon="6.22747">
        <ele>944</ele>
        <time>2019-05-21T09:23:51Z</time>
      </trkpt>
      <trkpt lat="46.72212" lon="6.22741">
        <ele>944</ele>
        <time>2019-05-21T09:23:55Z</time>
      </trkpt>
      <trkpt lat="46.72209" lon="6.22734">
        <ele>943</ele>
        <time>2019-05-21T09:23:59Z</time>
      </trkpt>
      <trkpt lat="46.72206" lon="6.22728">
        <ele>942</ele>
        <time>2019-05-21T09:24:04Z</time>
      </trkpt>
      <trkpt lat="46.72203" lon="6.22723">
        <ele>943</ele>
        <time>2019-05-21T09:24:09Z</time>
      </trkpt>
      <trkpt lat="46.72203" lon="6.22714">
        <ele>945</ele>
        <time>2019-05-21T09:24:53Z</time>
      </trkpt>
      <trkpt lat="46.722" lon="6.22708">
        <ele>943</ele>
        <time>2019-05-21T09:24:57Z</time>
      </trkpt>
      <trkpt lat="46.72197" lon="6.22702">
        <ele>947</ele>
        <time>2019-05-21T09:25:01Z</time>
      </trkpt>
      <trkpt lat="46.72188" lon="6.22684">
        <ele>947</ele>
        <time>2019-05-21T09:25:23Z</time>
      </trkpt>
      <trkpt lat="46.72182" lon="6.22673">
        <ele>947</ele>
        <time>2019-05-21T09:25:35Z</time>
      </trkpt>
      <trkpt lat="46.7216" lon="6.22632">
        <ele>948</ele>
        <time>2019-05-21T09:26:09Z</time>
      </trkpt>
      <trkpt lat="46.72154" lon="6.22619">
        <ele>950</ele>
        <time>2019-05-21T09:26:18Z</time>
      </trkpt>
      <trkpt lat="46.72147" lon="6.22606">
        <ele>950</ele>
        <time>2019-05-21T09:26:29Z</time>
      </trkpt>
      <trkpt lat="46.7214" lon="6.22596">
        <ele>951</ele>
        <time>2019-05-21T09:26:38Z</time>
      </trkpt>
      <trkpt lat="46.72135" lon="6.22583">
        <ele>951</ele>
        <time>2019-05-21T09:26:46Z</time>
      </trkpt>
      <trkpt lat="46.72127" lon="6.22565">
        <ele>955</ele>
        <time>2019-05-21T09:27:00Z</time>
      </trkpt>
      <trkpt lat="46.72117" lon="6.22547">
        <ele>954</ele>
        <time>2019-05-21T09:27:14Z</time>
      </trkpt>
      <trkpt lat="46.72114" lon="6.22542">
        <ele>955</ele>
        <time>2019-05-21T09:27:19Z</time>
      </trkpt>
      <trkpt lat="46.72111" lon="6.22536">
        <ele>955</ele>
        <time>2019-05-21T09:27:24Z</time>
      </trkpt>
      <trkpt lat="46.72105" lon="6.22524">
        <ele>956</ele>
        <time>2019-05-21T09:27:32Z</time>
      </trkpt>
      <trkpt lat="46.72103" lon="6.22518">
        <ele>956</ele>
        <time>2019-05-21T09:27:36Z</time>
      </trkpt>
      <trkpt lat="46.721" lon="6.22511">
        <ele>956</ele>
        <time>2019-05-21T09:27:40Z</time>
      </trkpt>
      <trkpt lat="46.72098" lon="6.22506">
        <ele>956</ele>
        <time>2019-05-21T09:27:44Z</time>
      </trkpt>
      <trkpt lat="46.72088" lon="6.22489">
        <ele>957</ele>
        <time>2019-05-21T09:27:56Z</time>
      </trkpt>
      <trkpt lat="46.72084" lon="6.22484">
        <ele>957</ele>
        <time>2019-05-21T09:28:00Z</time>
      </trkpt>
      <trkpt lat="46.72081" lon="6.22479">
        <ele>957</ele>
        <time>2019-05-21T09:28:04Z</time>
      </trkpt>
      <trkpt lat="46.72071" lon="6.22461">
        <ele>959</ele>
        <time>2019-05-21T09:28:17Z</time>
      </trkpt>
      <trkpt lat="46.72067" lon="6.22456">
        <ele>959</ele>
        <time>2019-05-21T09:28:21Z</time>
      </trkpt>
      <trkpt lat="46.72065" lon="6.22451">
        <ele>960</ele>
        <time>2019-05-21T09:28:26Z</time>
      </trkpt>
      <trkpt lat="46.72058" lon="6.22427">
        <ele>962</ele>
        <time>2019-05-21T09:28:42Z</time>
      </trkpt>
      <trkpt lat="46.72056" lon="6.2242">
        <ele>962</ele>
        <time>2019-05-21T09:28:46Z</time>
      </trkpt>
      <trkpt lat="46.72054" lon="6.22414">
        <ele>962</ele>
        <time>2019-05-21T09:28:50Z</time>
      </trkpt>
      <trkpt lat="46.72051" lon="6.22407">
        <ele>962</ele>
        <time>2019-05-21T09:28:54Z</time>
      </trkpt>
      <trkpt lat="46.72049" lon="6.224">
        <ele>963</ele>
        <time>2019-05-21T09:28:58Z</time>
      </trkpt>
      <trkpt lat="46.72045" lon="6.22387">
        <ele>963</ele>
        <time>2019-05-21T09:29:07Z</time>
      </trkpt>
      <trkpt lat="46.72035" lon="6.22364">
        <ele>965</ele>
        <time>2019-05-21T09:29:22Z</time>
      </trkpt>
      <trkpt lat="46.72029" lon="6.22353">
        <ele>965</ele>
        <time>2019-05-21T09:29:30Z</time>
      </trkpt>
      <trkpt lat="46.7201" lon="6.22304">
        <ele>968</ele>
        <time>2019-05-21T09:30:03Z</time>
      </trkpt>
      <trkpt lat="46.72005" lon="6.2229">
        <ele>970</ele>
        <time>2019-05-21T09:30:15Z</time>
      </trkpt>
      <trkpt lat="46.71999" lon="6.22279">
        <ele>969</ele>
        <time>2019-05-21T09:30:24Z</time>
      </trkpt>
      <trkpt lat="46.71996" lon="6.22273">
        <ele>969</ele>
        <time>2019-05-21T09:30:28Z</time>
      </trkpt>
      <trkpt lat="46.71989" lon="6.22254">
        <ele>970</ele>
        <time>2019-05-21T09:30:40Z</time>
      </trkpt>
      <trkpt lat="46.71982" lon="6.22234">
        <ele>970</ele>
        <time>2019-05-21T09:30:54Z</time>
      </trkpt>
      <trkpt lat="46.71978" lon="6.22225">
        <ele>970</ele>
        <time>2019-05-21T09:31:14Z</time>
      </trkpt>
      <trkpt lat="46.71977" lon="6.22219">
        <ele>970</ele>
        <time>2019-05-21T09:32:02Z</time>
      </trkpt>
      <trkpt lat="46.71971" lon="6.22213">
        <ele>974</ele>
        <time>2019-05-21T09:32:20Z</time>
      </trkpt>
      <trkpt lat="46.71968" lon="6.22208">
        <ele>974</ele>
        <time>2019-05-21T09:32:25Z</time>
      </trkpt>
      <trkpt lat="46.71963" lon="6.22205">
        <ele>972</ele>
        <time>2019-05-21T09:32:32Z</time>
      </trkpt>
      <trkpt lat="46.7196" lon="6.222">
        <ele>971</ele>
        <time>2019-05-21T09:32:36Z</time>
      </trkpt>
      <trkpt lat="46.71955" lon="6.22195">
        <ele>970</ele>
        <time>2019-05-21T09:32:40Z</time>
      </trkpt>
      <trkpt lat="46.71952" lon="6.22191">
        <ele>970</ele>
        <time>2019-05-21T09:32:43Z</time>
      </trkpt>
      <trkpt lat="46.71949" lon="6.22185">
        <ele>971</ele>
        <time>2019-05-21T09:32:47Z</time>
      </trkpt>
      <trkpt lat="46.71931" lon="6.22161">
        <ele>973</ele>
        <time>2019-05-21T09:33:06Z</time>
      </trkpt>
      <trkpt lat="46.71926" lon="6.22156">
        <ele>972</ele>
        <time>2019-05-21T09:33:11Z</time>
      </trkpt>
      <trkpt lat="46.71922" lon="6.22149">
        <ele>973</ele>
        <time>2019-05-21T09:33:15Z</time>
      </trkpt>
      <trkpt lat="46.71918" lon="6.22144">
        <ele>973</ele>
        <time>2019-05-21T09:33:19Z</time>
      </trkpt>
      <trkpt lat="46.71913" lon="6.22141">
        <ele>973</ele>
        <time>2019-05-21T09:33:26Z</time>
      </trkpt>
      <trkpt lat="46.71883" lon="6.22107">
        <ele>973</ele>
        <time>2019-05-21T09:33:58Z</time>
      </trkpt>
      <trkpt lat="46.71879" lon="6.22101">
        <ele>973</ele>
        <time>2019-05-21T09:34:02Z</time>
      </trkpt>
      <trkpt lat="46.71875" lon="6.22096">
        <ele>973</ele>
        <time>2019-05-21T09:34:06Z</time>
      </trkpt>
      <trkpt lat="46.71872" lon="6.22089">
        <ele>973</ele>
        <time>2019-05-21T09:34:10Z</time>
      </trkpt>
      <trkpt lat="46.71869" lon="6.22084">
        <ele>973</ele>
        <time>2019-05-21T09:34:14Z</time>
      </trkpt>
      <trkpt lat="46.71862" lon="6.22075">
        <ele>973</ele>
        <time>2019-05-21T09:34:23Z</time>
      </trkpt>
      <trkpt lat="46.71847" lon="6.22055">
        <ele>974</ele>
        <time>2019-05-21T09:34:41Z</time>
      </trkpt>
      <trkpt lat="46.71844" lon="6.2205">
        <ele>974</ele>
        <time>2019-05-21T09:34:45Z</time>
      </trkpt>
      <trkpt lat="46.71837" lon="6.22039">
        <ele>975</ele>
        <time>2019-05-21T09:34:52Z</time>
      </trkpt>
      <trkpt lat="46.71831" lon="6.22028">
        <ele>975</ele>
        <time>2019-05-21T09:34:58Z</time>
      </trkpt>
      <trkpt lat="46.71824" lon="6.22016">
        <ele>976</ele>
        <time>2019-05-21T09:35:06Z</time>
      </trkpt>
      <trkpt lat="46.7182" lon="6.22011">
        <ele>976</ele>
        <time>2019-05-21T09:35:11Z</time>
      </trkpt>
      <trkpt lat="46.71817" lon="6.22004">
        <ele>976</ele>
        <time>2019-05-21T09:35:15Z</time>
      </trkpt>
      <trkpt lat="46.71813" lon="6.21999">
        <ele>976</ele>
        <time>2019-05-21T09:35:18Z</time>
      </trkpt>
      <trkpt lat="46.71808" lon="6.21995">
        <ele>976</ele>
        <time>2019-05-21T09:35:26Z</time>
      </trkpt>
      <trkpt lat="46.71805" lon="6.21989">
        <ele>976</ele>
        <time>2019-05-21T09:35:30Z</time>
      </trkpt>
      <trkpt lat="46.71801" lon="6.21983">
        <ele>977</ele>
        <time>2019-05-21T09:35:33Z</time>
      </trkpt>
      <trkpt lat="46.71786" lon="6.21954">
        <ele>976</ele>
        <time>2019-05-21T09:35:53Z</time>
      </trkpt>
      <trkpt lat="46.71783" lon="6.21948">
        <ele>977</ele>
        <time>2019-05-21T09:35:57Z</time>
      </trkpt>
      <trkpt lat="46.7178" lon="6.21943">
        <ele>977</ele>
        <time>2019-05-21T09:36:01Z</time>
      </trkpt>
      <trkpt lat="46.7177" lon="6.21929">
        <ele>978</ele>
        <time>2019-05-21T09:36:13Z</time>
      </trkpt>
      <trkpt lat="46.7175" lon="6.21894">
        <ele>979</ele>
        <time>2019-05-21T09:36:38Z</time>
      </trkpt>
      <trkpt lat="46.71746" lon="6.21891">
        <ele>979</ele>
        <time>2019-05-21T09:36:42Z</time>
      </trkpt>
      <trkpt lat="46.7172" lon="6.21845">
        <ele>979</ele>
        <time>2019-05-21T09:37:13Z</time>
      </trkpt>
      <trkpt lat="46.71717" lon="6.21839">
        <ele>979</ele>
        <time>2019-05-21T09:37:17Z</time>
      </trkpt>
      <trkpt lat="46.71714" lon="6.21833">
        <ele>979</ele>
        <time>2019-05-21T09:37:21Z</time>
      </trkpt>
      <trkpt lat="46.71712" lon="6.21827">
        <ele>979</ele>
        <time>2019-05-21T09:37:25Z</time>
      </trkpt>
      <trkpt lat="46.71703" lon="6.21811">
        <ele>978</ele>
        <time>2019-05-21T09:37:40Z</time>
      </trkpt>
      <trkpt lat="46.71701" lon="6.21805">
        <ele>978</ele>
        <time>2019-05-21T09:37:43Z</time>
      </trkpt>
      <trkpt lat="46.71679" lon="6.21753">
        <ele>979</ele>
        <time>2019-05-21T09:38:12Z</time>
      </trkpt>
      <trkpt lat="46.71673" lon="6.21742">
        <ele>978</ele>
        <time>2019-05-21T09:38:21Z</time>
      </trkpt>
      <trkpt lat="46.71665" lon="6.21721">
        <ele>979</ele>
        <time>2019-05-21T09:38:34Z</time>
      </trkpt>
      <trkpt lat="46.71659" lon="6.21707">
        <ele>979</ele>
        <time>2019-05-21T09:38:42Z</time>
      </trkpt>
      <trkpt lat="46.71656" lon="6.217">
        <ele>979</ele>
        <time>2019-05-21T09:38:47Z</time>
      </trkpt>
      <trkpt lat="46.71632" lon="6.21635">
        <ele>978</ele>
        <time>2019-05-21T09:39:21Z</time>
      </trkpt>
      <trkpt lat="46.71622" lon="6.21611">
        <ele>977</ele>
        <time>2019-05-21T09:39:35Z</time>
      </trkpt>
      <trkpt lat="46.71619" lon="6.21604">
        <ele>977</ele>
        <time>2019-05-21T09:39:39Z</time>
      </trkpt>
      <trkpt lat="46.71616" lon="6.21598">
        <ele>977</ele>
        <time>2019-05-21T09:39:43Z</time>
      </trkpt>
      <trkpt lat="46.7161" lon="6.21587">
        <ele>976</ele>
        <time>2019-05-21T09:39:52Z</time>
      </trkpt>
      <trkpt lat="46.71606" lon="6.2158">
        <ele>976</ele>
        <time>2019-05-21T09:39:56Z</time>
      </trkpt>
      <trkpt lat="46.71603" lon="6.21574">
        <ele>975</ele>
        <time>2019-05-21T09:40:00Z</time>
      </trkpt>
      <trkpt lat="46.71599" lon="6.21569">
        <ele>975</ele>
        <time>2019-05-21T09:40:04Z</time>
      </trkpt>
      <trkpt lat="46.71596" lon="6.21562">
        <ele>975</ele>
        <time>2019-05-21T09:40:08Z</time>
      </trkpt>
      <trkpt lat="46.7159" lon="6.2155">
        <ele>974</ele>
        <time>2019-05-21T09:40:17Z</time>
      </trkpt>
      <trkpt lat="46.71579" lon="6.21525">
        <ele>975</ele>
        <time>2019-05-21T09:40:32Z</time>
      </trkpt>
      <trkpt lat="46.71572" lon="6.21514">
        <ele>974</ele>
        <time>2019-05-21T09:40:43Z</time>
      </trkpt>
      <trkpt lat="46.71554" lon="6.21479">
        <ele>974</ele>
        <time>2019-05-21T09:41:04Z</time>
      </trkpt>
      <trkpt lat="46.71544" lon="6.21464">
        <ele>973</ele>
        <time>2019-05-21T09:41:20Z</time>
      </trkpt>
      <trkpt lat="46.71524" lon="6.21419">
        <ele>972</ele>
        <time>2019-05-21T09:41:47Z</time>
      </trkpt>
      <trkpt lat="46.71521" lon="6.21413">
        <ele>972</ele>
        <time>2019-05-21T09:41:51Z</time>
      </trkpt>
      <trkpt lat="46.71504" lon="6.21373">
        <ele>970</ele>
        <time>2019-05-21T09:42:17Z</time>
      </trkpt>
      <trkpt lat="46.71501" lon="6.21367">
        <ele>970</ele>
        <time>2019-05-21T09:42:20Z</time>
      </trkpt>
      <trkpt lat="46.71493" lon="6.21347">
        <ele>970</ele>
        <time>2019-05-21T09:42:32Z</time>
      </trkpt>
      <trkpt lat="46.71489" lon="6.21334">
        <ele>969</ele>
        <time>2019-05-21T09:42:40Z</time>
      </trkpt>
      <trkpt lat="46.71485" lon="6.21321">
        <ele>969</ele>
        <time>2019-05-21T09:42:49Z</time>
      </trkpt>
      <trkpt lat="46.71482" lon="6.21314">
        <ele>968</ele>
        <time>2019-05-21T09:42:53Z</time>
      </trkpt>
      <trkpt lat="46.71474" lon="6.21295">
        <ele>968</ele>
        <time>2019-05-21T09:43:05Z</time>
      </trkpt>
      <trkpt lat="46.71469" lon="6.21281">
        <ele>967</ele>
        <time>2019-05-21T09:43:13Z</time>
      </trkpt>
      <trkpt lat="46.71461" lon="6.21262">
        <ele>967</ele>
        <time>2019-05-21T09:43:24Z</time>
      </trkpt>
      <trkpt lat="46.71459" lon="6.21255">
        <ele>967</ele>
        <time>2019-05-21T09:43:28Z</time>
      </trkpt>
      <trkpt lat="46.71456" lon="6.21247">
        <ele>967</ele>
        <time>2019-05-21T09:43:32Z</time>
      </trkpt>
      <trkpt lat="46.71454" lon="6.21241">
        <ele>966</ele>
        <time>2019-05-21T09:43:35Z</time>
      </trkpt>
      <trkpt lat="46.71452" lon="6.21235">
        <ele>966</ele>
        <time>2019-05-21T09:43:38Z</time>
      </trkpt>
      <trkpt lat="46.71449" lon="6.21229">
        <ele>966</ele>
        <time>2019-05-21T09:43:42Z</time>
      </trkpt>
      <trkpt lat="46.71447" lon="6.21222">
        <ele>966</ele>
        <time>2019-05-21T09:43:46Z</time>
      </trkpt>
      <trkpt lat="46.71446" lon="6.21215">
        <ele>966</ele>
        <time>2019-05-21T09:43:50Z</time>
      </trkpt>
      <trkpt lat="46.71444" lon="6.21209">
        <ele>966</ele>
        <time>2019-05-21T09:43:54Z</time>
      </trkpt>
      <trkpt lat="46.71435" lon="6.21174">
        <ele>967</ele>
        <time>2019-05-21T09:44:13Z</time>
      </trkpt>
      <trkpt lat="46.71434" lon="6.21167">
        <ele>966</ele>
        <time>2019-05-21T09:44:17Z</time>
      </trkpt>
      <trkpt lat="46.71428" lon="6.21133">
        <ele>967</ele>
        <time>2019-05-21T09:44:37Z</time>
      </trkpt>
      <trkpt lat="46.71426" lon="6.21126">
        <ele>966</ele>
        <time>2019-05-21T09:44:41Z</time>
      </trkpt>
      <trkpt lat="46.71421" lon="6.21123">
        <ele>966</ele>
        <time>2019-05-21T09:44:45Z</time>
      </trkpt>
      <trkpt lat="46.71417" lon="6.21129">
        <ele>966</ele>
        <time>2019-05-21T09:44:49Z</time>
      </trkpt>
      <trkpt lat="46.71415" lon="6.21136">
        <ele>967</ele>
        <time>2019-05-21T09:44:53Z</time>
      </trkpt>
      <trkpt lat="46.71412" lon="6.2115">
        <ele>966</ele>
        <time>2019-05-21T09:45:02Z</time>
      </trkpt>
      <trkpt lat="46.71411" lon="6.21157">
        <ele>967</ele>
        <time>2019-05-21T09:45:06Z</time>
      </trkpt>
      <trkpt lat="46.7141" lon="6.21164">
        <ele>966</ele>
        <time>2019-05-21T09:45:10Z</time>
      </trkpt>
      <trkpt lat="46.71408" lon="6.2117">
        <ele>967</ele>
        <time>2019-05-21T09:45:14Z</time>
      </trkpt>
      <trkpt lat="46.71406" lon="6.21178">
        <ele>967</ele>
        <time>2019-05-21T09:45:19Z</time>
      </trkpt>
      <trkpt lat="46.71404" lon="6.21183">
        <ele>967</ele>
        <time>2019-05-21T09:45:23Z</time>
      </trkpt>
      <trkpt lat="46.71401" lon="6.2119">
        <ele>967</ele>
        <time>2019-05-21T09:45:27Z</time>
      </trkpt>
      <trkpt lat="46.71391" lon="6.21206">
        <ele>969</ele>
        <time>2019-05-21T09:45:39Z</time>
      </trkpt>
      <trkpt lat="46.71384" lon="6.21216">
        <ele>969</ele>
        <time>2019-05-21T09:45:47Z</time>
      </trkpt>
      <trkpt lat="46.71379" lon="6.21216">
        <ele>970</ele>
        <time>2019-05-21T09:45:51Z</time>
      </trkpt>
      <trkpt lat="46.71375" lon="6.21214">
        <ele>970</ele>
        <time>2019-05-21T09:45:54Z</time>
      </trkpt>
      <trkpt lat="46.71361" lon="6.21203">
        <ele>971</ele>
        <time>2019-05-21T09:46:06Z</time>
      </trkpt>
      <trkpt lat="46.71356" lon="6.21199">
        <ele>971</ele>
        <time>2019-05-21T09:46:10Z</time>
      </trkpt>
      <trkpt lat="46.71352" lon="6.21195">
        <ele>970</ele>
        <time>2019-05-21T09:46:14Z</time>
      </trkpt>
      <trkpt lat="46.71347" lon="6.21192">
        <ele>970</ele>
        <time>2019-05-21T09:46:18Z</time>
      </trkpt>
      <trkpt lat="46.71343" lon="6.21188">
        <ele>969</ele>
        <time>2019-05-21T09:46:22Z</time>
      </trkpt>
      <trkpt lat="46.71334" lon="6.21182">
        <ele>968</ele>
        <time>2019-05-21T09:46:31Z</time>
      </trkpt>
      <trkpt lat="46.71329" lon="6.21177">
        <ele>968</ele>
        <time>2019-05-21T09:46:35Z</time>
      </trkpt>
      <trkpt lat="46.71325" lon="6.21174">
        <ele>967</ele>
        <time>2019-05-21T09:46:39Z</time>
      </trkpt>
      <trkpt lat="46.71315" lon="6.21167">
        <ele>967</ele>
        <time>2019-05-21T09:46:48Z</time>
      </trkpt>
      <trkpt lat="46.71302" lon="6.21156">
        <ele>966</ele>
        <time>2019-05-21T09:46:59Z</time>
      </trkpt>
      <trkpt lat="46.71284" lon="6.21145">
        <ele>963</ele>
        <time>2019-05-21T09:47:15Z</time>
      </trkpt>
      <trkpt lat="46.71274" lon="6.2114">
        <ele>962</ele>
        <time>2019-05-21T09:47:24Z</time>
      </trkpt>
      <trkpt lat="46.71255" lon="6.21126">
        <ele>959</ele>
        <time>2019-05-21T09:47:40Z</time>
      </trkpt>
      <trkpt lat="46.71251" lon="6.21123">
        <ele>959</ele>
        <time>2019-05-21T09:47:43Z</time>
      </trkpt>
      <trkpt lat="46.71213" lon="6.21101">
        <ele>952</ele>
        <time>2019-05-21T09:48:17Z</time>
      </trkpt>
      <trkpt lat="46.71209" lon="6.21097">
        <ele>952</ele>
        <time>2019-05-21T09:48:21Z</time>
      </trkpt>
      <trkpt lat="46.71204" lon="6.21095">
        <ele>951</ele>
        <time>2019-05-21T09:48:25Z</time>
      </trkpt>
      <trkpt lat="46.71199" lon="6.21092">
        <ele>951</ele>
        <time>2019-05-21T09:48:29Z</time>
      </trkpt>
      <trkpt lat="46.71194" lon="6.21089">
        <ele>950</ele>
        <time>2019-05-21T09:48:33Z</time>
      </trkpt>
      <trkpt lat="46.71189" lon="6.21087">
        <ele>950</ele>
        <time>2019-05-21T09:48:37Z</time>
      </trkpt>
      <trkpt lat="46.71186" lon="6.21081">
        <ele>950</ele>
        <time>2019-05-21T09:48:41Z</time>
      </trkpt>
      <trkpt lat="46.71179" lon="6.21063">
        <ele>950</ele>
        <time>2019-05-21T09:48:54Z</time>
      </trkpt>
      <trkpt lat="46.71174" lon="6.21051">
        <ele>949</ele>
        <time>2019-05-21T09:49:02Z</time>
      </trkpt>
      <trkpt lat="46.71169" lon="6.21038">
        <ele>950</ele>
        <time>2019-05-21T09:49:10Z</time>
      </trkpt>
      <trkpt lat="46.71166" lon="6.21032">
        <ele>949</ele>
        <time>2019-05-21T09:49:13Z</time>
      </trkpt>
      <trkpt lat="46.7116" lon="6.2102">
        <ele>949</ele>
        <time>2019-05-21T09:49:20Z</time>
      </trkpt>
      <trkpt lat="46.71151" lon="6.21004">
        <ele>948</ele>
        <time>2019-05-21T09:49:30Z</time>
      </trkpt>
      <trkpt lat="46.71145" lon="6.20991">
        <ele>948</ele>
        <time>2019-05-21T09:49:38Z</time>
      </trkpt>
      <trkpt lat="46.71142" lon="6.20986">
        <ele>948</ele>
        <time>2019-05-21T09:49:42Z</time>
      </trkpt>
      <trkpt lat="46.71139" lon="6.20979">
        <ele>948</ele>
        <time>2019-05-21T09:49:49Z</time>
      </trkpt>
      <trkpt lat="46.71129" lon="6.20963">
        <ele>949</ele>
        <time>2019-05-21T09:50:02Z</time>
      </trkpt>
      <trkpt lat="46.71099" lon="6.20922">
        <ele>945</ele>
        <time>2019-05-21T09:50:35Z</time>
      </trkpt>
      <trkpt lat="46.71082" lon="6.20902">
        <ele>945</ele>
        <time>2019-05-21T09:50:52Z</time>
      </trkpt>
      <trkpt lat="46.71073" lon="6.20896">
        <ele>944</ele>
        <time>2019-05-21T09:50:59Z</time>
      </trkpt>
      <trkpt lat="46.71069" lon="6.20893">
        <ele>944</ele>
        <time>2019-05-21T09:51:03Z</time>
      </trkpt>
      <trkpt lat="46.7106" lon="6.20885">
        <ele>944</ele>
        <time>2019-05-21T09:51:11Z</time>
      </trkpt>
      <trkpt lat="46.71044" lon="6.20866">
        <ele>944</ele>
        <time>2019-05-21T09:51:26Z</time>
      </trkpt>
      <trkpt lat="46.71031" lon="6.20847">
        <ele>945</ele>
        <time>2019-05-21T09:51:42Z</time>
      </trkpt>
      <trkpt lat="46.7102" lon="6.20824">
        <ele>943</ele>
        <time>2019-05-21T09:51:56Z</time>
      </trkpt>
      <trkpt lat="46.70999" lon="6.20774">
        <ele>945</ele>
        <time>2019-05-21T09:52:28Z</time>
      </trkpt>
      <trkpt lat="46.70982" lon="6.20736">
        <ele>946</ele>
        <time>2019-05-21T09:52:54Z</time>
      </trkpt>
      <trkpt lat="46.70979" lon="6.20729">
        <ele>946</ele>
        <time>2019-05-21T09:52:58Z</time>
      </trkpt>
      <trkpt lat="46.70976" lon="6.20723">
        <ele>946</ele>
        <time>2019-05-21T09:53:02Z</time>
      </trkpt>
      <trkpt lat="46.70971" lon="6.20721">
        <ele>946</ele>
        <time>2019-05-21T09:53:06Z</time>
      </trkpt>
      <trkpt lat="46.70966" lon="6.20724">
        <ele>947</ele>
        <time>2019-05-21T09:53:10Z</time>
      </trkpt>
      <trkpt lat="46.70962" lon="6.20729">
        <ele>947</ele>
        <time>2019-05-21T09:53:15Z</time>
      </trkpt>
      <trkpt lat="46.70956" lon="6.20749">
        <ele>949</ele>
        <time>2019-05-21T09:53:29Z</time>
      </trkpt>
      <trkpt lat="46.70953" lon="6.20756">
        <ele>949</ele>
        <time>2019-05-21T09:53:34Z</time>
      </trkpt>
      <trkpt lat="46.7095" lon="6.20762">
        <ele>949</ele>
        <time>2019-05-21T09:53:38Z</time>
      </trkpt>
      <trkpt lat="46.70949" lon="6.20768">
        <ele>949</ele>
        <time>2019-05-21T09:53:42Z</time>
      </trkpt>
      <trkpt lat="46.70946" lon="6.20775">
        <ele>949</ele>
        <time>2019-05-21T09:53:47Z</time>
      </trkpt>
      <trkpt lat="46.70928" lon="6.20824">
        <ele>948</ele>
        <time>2019-05-21T09:54:19Z</time>
      </trkpt>
      <trkpt lat="46.70922" lon="6.20846">
        <ele>948</ele>
        <time>2019-05-21T09:54:31Z</time>
      </trkpt>
      <trkpt lat="46.70919" lon="6.20852">
        <ele>948</ele>
        <time>2019-05-21T09:54:35Z</time>
      </trkpt>
      <trkpt lat="46.70917" lon="6.20859">
        <ele>948</ele>
        <time>2019-05-21T09:54:39Z</time>
      </trkpt>
      <trkpt lat="46.70903" lon="6.20908">
        <ele>948</ele>
        <time>2019-05-21T09:55:07Z</time>
      </trkpt>
      <trkpt lat="46.70898" lon="6.2093">
        <ele>949</ele>
        <time>2019-05-21T09:55:19Z</time>
      </trkpt>
      <trkpt lat="46.70891" lon="6.20951">
        <ele>948</ele>
        <time>2019-05-21T09:55:31Z</time>
      </trkpt>
      <trkpt lat="46.70888" lon="6.20957">
        <ele>947</ele>
        <time>2019-05-21T09:55:35Z</time>
      </trkpt>
      <trkpt lat="46.70886" lon="6.20964">
        <ele>947</ele>
        <time>2019-05-21T09:55:39Z</time>
      </trkpt>
      <trkpt lat="46.70881" lon="6.20985">
        <ele>946</ele>
        <time>2019-05-21T09:55:51Z</time>
      </trkpt>
      <trkpt lat="46.70879" lon="6.20992">
        <ele>946</ele>
        <time>2019-05-21T09:55:55Z</time>
      </trkpt>
      <trkpt lat="46.70874" lon="6.21007">
        <ele>946</ele>
        <time>2019-05-21T09:56:04Z</time>
      </trkpt>
      <trkpt lat="46.70872" lon="6.21013">
        <ele>946</ele>
        <time>2019-05-21T09:56:07Z</time>
      </trkpt>
      <trkpt lat="46.7087" lon="6.2102">
        <ele>946</ele>
        <time>2019-05-21T09:56:11Z</time>
      </trkpt>
      <trkpt lat="46.70868" lon="6.21027">
        <ele>946</ele>
        <time>2019-05-21T09:56:15Z</time>
      </trkpt>
      <trkpt lat="46.70862" lon="6.21041">
        <ele>946</ele>
        <time>2019-05-21T09:56:23Z</time>
      </trkpt>
      <trkpt lat="46.7086" lon="6.21047">
        <ele>947</ele>
        <time>2019-05-21T09:56:27Z</time>
      </trkpt>
      <trkpt lat="46.70857" lon="6.21052">
        <ele>947</ele>
        <time>2019-05-21T09:56:31Z</time>
      </trkpt>
      <trkpt lat="46.70853" lon="6.21058">
        <ele>947</ele>
        <time>2019-05-21T09:56:35Z</time>
      </trkpt>
      <trkpt lat="46.7085" lon="6.21063">
        <ele>947</ele>
        <time>2019-05-21T09:56:39Z</time>
      </trkpt>
      <trkpt lat="46.70841" lon="6.21069">
        <ele>946</ele>
        <time>2019-05-21T09:56:47Z</time>
      </trkpt>
      <trkpt lat="46.70836" lon="6.21072">
        <ele>946</ele>
        <time>2019-05-21T09:56:51Z</time>
      </trkpt>
      <trkpt lat="46.70825" lon="6.21072">
        <ele>946</ele>
        <time>2019-05-21T09:56:59Z</time>
      </trkpt>
      <trkpt lat="46.70818" lon="6.21071">
        <ele>944</ele>
        <time>2019-05-21T09:57:08Z</time>
      </trkpt>
      <trkpt lat="46.70811" lon="6.21068">
        <ele>944</ele>
        <time>2019-05-21T09:57:15Z</time>
      </trkpt>
      <trkpt lat="46.70806" lon="6.21065">
        <ele>944</ele>
        <time>2019-05-21T09:57:20Z</time>
      </trkpt>
      <trkpt lat="46.70802" lon="6.21063">
        <ele>944</ele>
        <time>2019-05-21T09:57:25Z</time>
      </trkpt>
      <trkpt lat="46.70796" lon="6.21059">
        <ele>944</ele>
        <time>2019-05-21T09:57:31Z</time>
      </trkpt>
      <trkpt lat="46.70792" lon="6.21055">
        <ele>944</ele>
        <time>2019-05-21T09:57:35Z</time>
      </trkpt>
      <trkpt lat="46.70791" lon="6.21039">
        <ele>943</ele>
        <time>2019-05-21T09:57:49Z</time>
      </trkpt>
      <trkpt lat="46.70791" lon="6.21032">
        <ele>943</ele>
        <time>2019-05-21T09:57:54Z</time>
      </trkpt>
      <trkpt lat="46.70788" lon="6.21026">
        <ele>942</ele>
        <time>2019-05-21T09:57:58Z</time>
      </trkpt>
      <trkpt lat="46.70785" lon="6.21022">
        <ele>943</ele>
        <time>2019-05-21T09:58:03Z</time>
      </trkpt>
      <trkpt lat="46.70769" lon="6.21012">
        <ele>942</ele>
        <time>2019-05-21T09:58:25Z</time>
      </trkpt>
      <trkpt lat="46.70769" lon="6.2101">
        <ele>945</ele>
        <time>2019-05-21T09:59:19Z</time>
      </trkpt>
    </trkseg>
  </trk>
</gpx>